
Distance (Route):
Temperature : -8.6°C
Humidity : 13.5%
Pressure : 0hPa| Receiver | Date | Latitude | Longitude | Direction | Speed | Altitude | Climb | Temperature | Humidity | Pressure | Voltage | Killtimer | Uptime | BKT | XDATA |
|---|---|---|---|---|---|---|---|---|---|---|---|---|---|---|---|
| LZ4TU-5 | 2026-09-04 18:49:20 | 44.36400 | 20.64859 | 174° | 44km/h | 6152m | -15.9m/s | -8.6°C | 13.5% | 0hPa | 5.4V | 00:00:00 | 00:00:00 | 00:00:00 | |
| LZ4TU-5 | 2026-09-04 18:49:15 | 44.36456 | 20.64849 | 174° | 47km/h | 6234m | -15.9m/s | -9.0°C | 10.9% | 0hPa | 5.4V | 00:00:00 | 00:00:00 | 00:00:00 | |
| LZ4TU-5 | 2026-09-04 18:47:56 | 44.37358 | 20.64546 | 163° | 46km/h | 7574m | -17.0m/s | -18.3°C | 49.4% | 0hPa | 5.4V | 00:00:00 | 00:00:00 | 00:00:00 | |
| LZ4TU-5 | 2026-09-04 18:47:51 | 44.37414 | 20.64523 | 166° | 46km/h | 7663m | -18.0m/s | -19.1°C | 47.4% | 0hPa | 5.4V | 00:00:00 | 00:00:00 | 00:00:00 | |
| LZ4TU-5 | 2026-09-04 18:46:34 | 44.38294 | 20.64056 | 150° | 55km/h | 9029m | -18.5m/s | -29.6°C | 42.5% | 0hPa | 5.4V | 00:00:00 | 00:00:00 | 00:00:00 | |
| LZ4TU-5 | 2026-09-04 18:46:29 | 44.38352 | 20.64007 | 150° | 53km/h | 9123m | -19.0m/s | -30.4°C | 43.1% | 0hPa | 5.4V | 00:00:00 | 00:00:00 | 00:00:00 | |
| LZ4TU-5 | 2026-09-04 18:45:16 | 44.39218 | 20.63385 | 154° | 55km/h | 10550m | -20.7m/s | -42.6°C | 58.9% | 0hPa | 5.4V | 00:00:00 | 00:00:00 | 00:00:00 | |
| LZ4TU-5 | 2026-09-04 18:45:12 | 44.39269 | 20.63351 | 157° | 55km/h | 10635m | -20.6m/s | -43.3°C | 59.9% | 0hPa | 5.4V | 00:00:00 | 00:00:00 | 00:00:00 | |
| LZ4TU-5 | 2026-09-04 18:43:46 | 44.40582 | 20.62758 | 164° | 73km/h | 12586m | -24.1m/s | -59.7°C | 26.0% | 0hPa | 5.4V | 00:00:00 | 00:00:00 | 00:00:00 | |
| LZ4TU-5 | 2026-09-04 18:43:42 | 44.40652 | 20.62730 | 166° | 73km/h | 12684m | -24.0m/s | -60.5°C | 23.2% | 0hPa | 5.4V | 00:00:00 | 00:00:00 | 00:00:00 | |
| LZ4TU-5 | 2026-09-04 18:42:24 | 44.41872 | 20.62465 | 146° | 35km/h | 14691m | -28.5m/s | -60.8°C | 1.2% | 0hPa | 5.4V | 00:00:00 | 00:00:00 | 00:00:00 | |
| LZ4TU-5 | 2026-09-04 18:42:20 | 44.41900 | 20.62433 | 137° | 38km/h | 14800m | -28.5m/s | -61.2°C | 1.2% | 0hPa | 5.4V | 00:00:00 | 00:00:00 | 00:00:00 | |
| LZ4TU-5 | 2026-09-04 18:41:05 | 44.42308 | 20.61773 | 135° | 26km/h | 17152m | -34.8m/s | -59.2°C | 0.1% | 0hPa | 5.4V | 00:00:00 | 00:00:00 | 00:00:00 | |
| LZ4TU-5 | 2026-09-04 18:41:00 | 44.42332 | 20.61743 | 156° | 24km/h | 17320m | -34.3m/s | -58.9°C | 0.0% | 0hPa | 5.4V | 00:00:00 | 00:00:00 | 00:00:00 | |
| LZ4TU-5 | 2026-09-04 18:40:56 | 44.42351 | 20.61731 | 154° | 11km/h | 17461m | -34.9m/s | -58.8°C | 0.1% | 0hPa | 5.4V | 00:00:00 | 00:00:00 | 00:00:00 | |
| LZ4TU-5 | 2026-09-04 18:40:51 | 44.42358 | 20.61722 | 75° | 7km/h | 17631m | -35.1m/s | -58.1°C | 0.0% | 0hPa | 5.4V | 00:00:00 | 00:00:00 | 00:00:00 | |
| LZ4TU-5 | 2026-09-04 18:40:39 | 44.42347 | 20.61674 | 107° | 11km/h | 18055m | -37.0m/s | -57.7°C | 0.0% | 0hPa | 5.4V | 00:00:00 | 00:00:00 | 00:00:00 | |
| LZ4TU-5 | 2026-09-04 18:39:14 | 44.42372 | 20.61341 | 142° | 15km/h | 21356m | -41.8m/s | -55.0°C | 0.0% | 0hPa | 5.4V | 00:00:00 | 00:00:00 | 00:00:00 | |
| LZ4TU-5 | 2026-09-04 18:39:09 | 44.42385 | 20.61321 | 127° | 20km/h | 21564m | -41.5m/s | -54.7°C | 0.0% | 0hPa | 5.4V | 00:00:00 | 00:00:00 | 00:00:00 | |
| LZ4TU-5 | 2026-09-04 18:39:03 | 44.42403 | 20.61293 | 157° | 15km/h | 21820m | -43.1m/s | -54.1°C | 0.0% | 0hPa | 5.4V | 00:00:00 | 00:00:00 | 00:00:00 | |
| LZ4TU-5 | 2026-09-04 18:38:57 | 44.42422 | 20.61288 | 210° | 9km/h | 22083m | -43.3m/s | -54.8°C | 0.0% | 0hPa | 5.4V | 00:00:00 | 00:00:00 | 00:00:00 | |
| LZ4TU-5 | 2026-09-04 18:38:52 | 44.42425 | 20.61300 | 299° | 7km/h | 22304m | -43.1m/s | -54.2°C | 0.0% | 0hPa | 5.4V | 00:00:00 | 00:00:00 | 00:00:00 | |
| LZ4TU-5 | 2026-09-04 18:37:35 | 44.42476 | 20.61383 | 252° | 11km/h | 25909m | -50.0m/s | -47.8°C | 0.9% | 0hPa | 5.4V | 00:00:00 | 00:00:00 | 00:00:00 | |
| LZ4TU-5 | 2026-09-04 18:37:31 | 44.42475 | 20.61399 | 279° | 7km/h | 26108m | -49.6m/s | -47.3°C | 0.8% | 0hPa | 5.4V | 00:00:00 | 00:00:00 | 00:00:00 | |
| LZ4TU-5 | 2026-09-04 18:37:26 | 44.42472 | 20.61408 | 324° | 9km/h | 26326m | -50.7m/s | -46.2°C | 0.7% | 0hPa | 5.4V | 00:00:00 | 00:00:00 | 00:00:00 | |
| LZ4TU-5 | 2026-09-04 18:36:11 | 44.42509 | 20.61462 | 270° | 4km/h | 29401m | 8.1m/s | -44.8°C | 0.6% | 0hPa | 5.4V | 00:00:00 | 00:00:00 | 00:00:00 | |
| LZ4TU-5 | 2026-09-04 18:36:06 | 44.42510 | 20.61476 | 267° | 20km/h | 29369m | 5.6m/s | -44.8°C | 0.6% | 0hPa | 5.4V | 00:00:00 | 00:00:00 | 00:00:00 | |
| OM5KV | 2026-09-04 18:35:16 | 44.42456 | 20.61668 | 0° | 0km/h | 29030m | 6.3m/s | -44.7°C | 0.5% | 0hPa | 5.4V | 00:00:00 | 00:00:00 | 00:00:00 | |
| OM5KV | 2026-09-04 18:35:05 | 44.42462 | 20.61691 | 123° | 4km/h | 28959m | 8.3m/s | -45.0°C | 0.6% | 0hPa | 5.4V | 00:00:00 | 00:00:00 | 00:00:00 | |
| OM5KV | 2026-09-04 18:34:59 | 44.42475 | 20.61684 | 238° | 7km/h | 28920m | 7.3m/s | -45.2°C | 0.6% | 0hPa | 5.4V | 00:00:00 | 00:00:00 | 00:00:00 | |
| LZ4TU-5 | 2026-09-04 18:34:50 | 44.42485 | 20.61684 | 157° | 20km/h | 28861m | 3.8m/s | -45.1°C | 0.6% | 0hPa | 5.4V | 00:00:00 | 00:00:00 | 00:00:00 | |
| OM5KV | 2026-09-04 18:34:48 | 44.42491 | 20.61683 | 240° | 9km/h | 28850m | 7.6m/s | -45.1°C | 0.6% | 0hPa | 5.4V | 00:00:00 | 00:00:00 | 00:00:00 | |
| LZ4TU-5 | 2026-09-04 18:34:45 | 44.42485 | 20.61708 | 294° | 31km/h | 28831m | 4.0m/s | -45.1°C | 0.6% | 0hPa | 5.4V | 00:00:00 | 00:00:00 | 00:00:00 | |
| OM5KV | 2026-09-04 18:34:29 | 44.42493 | 20.61765 | 204° | 22km/h | 28726m | 7.7m/s | -44.9°C | 0.5% | 0hPa | 5.4V | 00:00:00 | 00:00:00 | 00:00:00 | |
| OM5KV | 2026-09-04 18:34:23 | 44.42502 | 20.61775 | 296° | 29km/h | 28685m | 7.5m/s | -45.2°C | 0.6% | 0hPa | 5.4V | 00:00:00 | 00:00:00 | 00:00:00 | |
| OM5KV | 2026-09-04 18:34:17 | 44.42492 | 20.61824 | 205° | 18km/h | 28646m | 6.7m/s | -45.2°C | 0.5% | 0hPa | 5.4V | 00:00:00 | 00:00:00 | 00:00:00 | |
| OM5KV | 2026-09-04 18:34:12 | 44.42501 | 20.61823 | 276° | 13km/h | 28611m | 8.8m/s | -45.1°C | 0.5% | 0hPa | 5.4V | 00:00:00 | 00:00:00 | 00:00:00 | |
| OM5KV | 2026-09-04 18:34:06 | 44.42509 | 20.61864 | 151° | 16km/h | 28573m | 6.1m/s | -45.0°C | 0.5% | 0hPa | 5.4V | 00:00:00 | 00:00:00 | 00:00:00 | |
| OM5KV | 2026-09-04 18:34:01 | 44.42530 | 20.61869 | 250° | 24km/h | 28539m | 7.4m/s | -45.0°C | 0.5% | 0hPa | 5.4V | 00:00:00 | 00:00:00 | 00:00:00 | |
| OM5KV | 2026-09-04 18:33:56 | 44.42529 | 20.61904 | 198° | 18km/h | 28507m | 7.3m/s | -45.1°C | 0.5% | 0hPa | 5.4V | 00:00:00 | 00:00:00 | 00:00:00 | |
| OM5KV | 2026-09-04 18:33:49 | 44.42584 | 20.61896 | 232° | 27km/h | 28458m | 7.9m/s | -44.9°C | 0.4% | 0hPa | 5.4V | 00:00:00 | 00:00:00 | 00:00:00 | |
| LZ4TU-5 | 2026-09-04 18:33:31 | 44.42632 | 20.61892 | 141° | 38km/h | 28335m | 6.6m/s | -45.9°C | 0.6% | 0hPa | 5.4V | 00:00:00 | 00:00:00 | 00:00:00 | |
| LZ4TU-5 | 2026-09-04 18:33:26 | 44.42670 | 20.61881 | 238° | 13km/h | 28306m | 5.3m/s | -46.2°C | 0.7% | 0hPa | 5.4V | 00:00:00 | 00:00:00 | 00:00:00 | |
| OM5KV | 2026-09-04 18:32:57 | 44.42747 | 20.61706 | 125° | 24km/h | 28110m | 8.0m/s | -46.1°C | 0.7% | 0hPa | 5.4V | 00:00:00 | 00:00:00 | 00:00:00 | |
| OM5KV | 2026-09-04 18:32:34 | 44.42747 | 20.61592 | 97° | 7km/h | 27953m | 6.2m/s | -46.0°C | 0.7% | 0hPa | 5.4V | 00:00:00 | 00:00:00 | 00:00:00 | |
| OM5KV | 2026-09-04 18:32:16 | 44.42762 | 20.61568 | 262° | 4km/h | 27832m | 6.3m/s | -45.9°C | 0.6% | 0hPa | 5.4V | 00:00:00 | 00:00:00 | 00:00:00 | |
| LZ4TU-5 | 2026-09-04 18:32:11 | 44.42776 | 20.61576 | 201° | 15km/h | 27799m | 5.3m/s | -45.9°C | 0.6% | 0hPa | 5.4V | 00:00:00 | 00:00:00 | 00:00:00 | |
| LZ4TU-5 | 2026-09-04 18:32:06 | 44.42792 | 20.61567 | 102° | 9km/h | 27767m | 7.2m/s | -45.8°C | 0.6% | 0hPa | 5.4V | 00:00:00 | 00:00:00 | 00:00:00 | |
| OM5KV | 2026-09-04 18:32:05 | 44.42792 | 20.61565 | 0° | 0km/h | 27758m | 8.4m/s | -45.8°C | 0.6% | 0hPa | 5.4V | 00:00:00 | 00:00:00 | 00:00:00 | |
| OM5KV | 2026-09-04 18:31:53 | 44.42842 | 20.61536 | 179° | 9km/h | 27677m | 7.4m/s | -45.7°C | 0.6% | 0hPa | 5.4V | 00:00:00 | 00:00:00 | 00:00:00 | |
| OM5KV | 2026-09-04 18:31:43 | 44.42883 | 20.61488 | 179° | 26km/h | 27612m | 5.6m/s | -45.8°C | 0.5% | 0hPa | 5.4V | 00:00:00 | 00:00:00 | 00:00:00 | |
| OM5KV | 2026-09-04 18:31:32 | 44.42919 | 20.61424 | 147° | 16km/h | 27538m | 7.0m/s | -46.4°C | 0.6% | 0hPa | 5.4V | 00:00:00 | 00:00:00 | 00:00:00 | |
| LZ4TU-5 | 2026-09-04 18:30:52 | 44.42921 | 20.61307 | 86° | 16km/h | 27273m | 6.3m/s | -46.4°C | 0.5% | 0hPa | 5.4V | 00:00:00 | 00:00:00 | 00:00:00 | |
| LZ4TU-5 | 2026-09-04 18:30:47 | 44.42928 | 20.61298 | 259° | 5km/h | 27240m | 6.4m/s | -46.9°C | 0.6% | 0hPa | 5.4V | 00:00:00 | 00:00:00 | 00:00:00 | |
| OM5KV | 2026-09-04 18:30:41 | 44.42914 | 20.61285 | 63° | 22km/h | 27200m | 6.1m/s | -47.4°C | 0.6% | 0hPa | 5.4V | 00:00:00 | 00:00:00 | 00:00:00 | |
| OM5KV | 2026-09-04 18:30:29 | 44.42900 | 20.61242 | 50° | 15km/h | 27124m | 5.8m/s | -47.7°C | 0.7% | 0hPa | 5.4V | 00:00:00 | 00:00:00 | 00:00:00 | |
| OM5KV | 2026-09-04 18:30:22 | 44.42878 | 20.61226 | 35° | 4km/h | 27083m | 5.8m/s | -47.6°C | 0.7% | 0hPa | 5.4V | 00:00:00 | 00:00:00 | 00:00:00 | |
| OM5KV | 2026-09-04 18:30:17 | 44.42869 | 20.61218 | 1° | 22km/h | 27054m | 6.4m/s | -47.6°C | 0.7% | 0hPa | 5.4V | 00:00:00 | 00:00:00 | 00:00:00 | |
| GYPAP8-17 | 2026-09-04 18:29:54 | 44.42826 | 20.61189 | 361° | 18km/h | 26908m | 5.3m/s | -47.6°C | 0.7% | 0hPa | 5.4V | 00:00:00 | 00:00:00 | 00:00:00 | |
| OM5KV | 2026-09-04 18:29:32 | 44.42823 | 20.61167 | 337° | 9km/h | 26774m | 6.8m/s | -48.1°C | 0.8% | 0hPa | 5.4V | 00:00:00 | 00:00:00 | 00:00:00 | |
| LZ4TU-5 | 2026-09-04 18:29:28 | 44.42815 | 20.61168 | 85° | 11km/h | 26750m | 7.1m/s | -48.3°C | 0.8% | 0hPa | 5.4V | 00:00:00 | 00:00:00 | 00:00:00 | |
| OM5KV | 2026-09-04 18:29:25 | 44.42818 | 20.61157 | 130° | 15km/h | 26730m | 7.1m/s | -48.4°C | 0.9% | 0hPa | 5.4V | 00:00:00 | 00:00:00 | 00:00:00 | |
| OM5KV | 2026-09-04 18:29:13 | 44.42797 | 20.61160 | 295° | 4km/h | 26640m | 6.4m/s | -48.0°C | 0.8% | 0hPa | 5.4V | 00:00:00 | 00:00:00 | 00:00:00 | |
| OM5KV | 2026-09-04 18:29:03 | 44.42774 | 20.61197 | 180° | 4km/h | 26573m | 6.3m/s | -47.6°C | 0.7% | 0hPa | 5.4V | 00:00:00 | 00:00:00 | 00:00:00 | |
| OM5KV | 2026-09-04 18:28:56 | 44.42762 | 20.61218 | 302° | 33km/h | 26529m | 6.2m/s | -47.4°C | 0.6% | 0hPa | 5.4V | 00:00:00 | 00:00:00 | 00:00:00 | |
| OM5KV | 2026-09-04 18:28:55 | 44.42757 | 20.61227 | 303° | 33km/h | 26522m | 6.2m/s | -47.5°C | 0.6% | 0hPa | 5.4V | 00:00:00 | 00:00:00 | 00:00:00 | |
| GYPAP8-17 | 2026-09-04 18:28:48 | 44.42755 | 20.61259 | 300° | 7km/h | 26477m | 6.9m/s | -47.7°C | 0.7% | 0hPa | 5.4V | 00:00:00 | 00:00:00 | 00:00:00 | |
| OM5KV | 2026-09-04 18:28:45 | 44.42749 | 20.61277 | 283° | 29km/h | 26456m | 6.4m/s | -47.7°C | 0.7% | 0hPa | 5.4V | 00:00:00 | 00:00:00 | 00:00:00 | |
| OM5KV | 2026-09-04 18:28:44 | 44.42747 | 20.61286 | 278° | 29km/h | 26449m | 6.3m/s | -47.7°C | 0.7% | 0hPa | 5.4V | 00:00:00 | 00:00:00 | 00:00:00 | |
| OM5KV | 2026-09-04 18:28:39 | 44.42752 | 20.61316 | 256° | 11km/h | 26413m | 6.0m/s | -47.8°C | 0.7% | 0hPa | 5.4V | 00:00:00 | 00:00:00 | 00:00:00 | |
| OM5KV | 2026-09-04 18:28:33 | 44.42734 | 20.61334 | 294° | 5km/h | 26376m | 7.9m/s | -47.9°C | 0.7% | 0hPa | 5.4V | 00:00:00 | 00:00:00 | 00:00:00 | |
| OM5KV | 2026-09-04 18:28:32 | 44.42734 | 20.61336 | 258° | 7km/h | 26367m | 7.8m/s | -48.0°C | 0.7% | 0hPa | 5.4V | 00:00:00 | 00:00:00 | 00:00:00 | |
| OM5KV | 2026-09-04 18:28:21 | 44.42717 | 20.61365 | 304° | 13km/h | 26288m | 5.0m/s | -48.1°C | 0.6% | 0hPa | 5.4V | 00:00:00 | 00:00:00 | 00:00:00 | |
| OM5KV | 2026-09-04 18:28:16 | 44.42720 | 20.61391 | 280° | 5km/h | 26260m | 5.4m/s | -48.3°C | 0.7% | 0hPa | 5.4V | 00:00:00 | 00:00:00 | 00:00:00 | |
| OM5KV | 2026-09-04 18:28:15 | 44.42719 | 20.61391 | 327° | 5km/h | 26254m | 5.3m/s | -48.3°C | 0.7% | 0hPa | 5.4V | 00:00:00 | 00:00:00 | 00:00:00 | |
| LZ4TU-5 | 2026-09-04 18:28:11 | 44.42706 | 20.61401 | 326° | 15km/h | 26230m | 5.8m/s | -48.3°C | 0.7% | 0hPa | 5.4V | 00:00:00 | 00:00:00 | 00:00:00 | |
| OM5KV | 2026-09-04 18:28:10 | 44.42702 | 20.61406 | 310° | 20km/h | 26223m | 5.3m/s | -48.3°C | 0.7% | 0hPa | 5.4V | 00:00:00 | 00:00:00 | 00:00:00 | |
| LZ4TU-5 | 2026-09-04 18:28:06 | 44.42712 | 20.61419 | 194° | 20km/h | 26199m | 6.0m/s | -48.4°C | 0.7% | 0hPa | 5.4V | 00:00:00 | 00:00:00 | 00:00:00 | |
| OM5KV | 2026-09-04 18:28:05 | 44.42712 | 20.61423 | 305° | 18km/h | 26193m | 5.4m/s | -48.5°C | 0.7% | 0hPa | 5.4V | 00:00:00 | 00:00:00 | 00:00:00 | |
| LZ4TU-5 | 2026-09-04 18:28:01 | 44.42708 | 20.61445 | 256° | 13km/h | 26168m | 6.5m/s | -48.5°C | 0.7% | 0hPa | 5.4V | 00:00:00 | 00:00:00 | 00:00:00 | |
| OM5KV | 2026-09-04 18:27:55 | 44.42705 | 20.61466 | 252° | 18km/h | 26132m | 6.0m/s | -48.7°C | 0.7% | 0hPa | 5.4V | 00:00:00 | 00:00:00 | 00:00:00 | |
| OM5KV | 2026-09-04 18:27:26 | 44.42778 | 20.61583 | 233° | 7km/h | 25949m | 6.5m/s | -49.1°C | 0.7% | 0hPa | 5.4V | 00:00:00 | 00:00:00 | 00:00:00 | |
| GYPAP8-17 | 2026-09-04 18:27:24 | 44.42778 | 20.61582 | 55° | 7km/h | 25935m | 7.0m/s | -49.1°C | 0.7% | 0hPa | 5.4V | 00:00:00 | 00:00:00 | 00:00:00 | |
| OM5KV | 2026-09-04 18:27:21 | 44.42778 | 20.61579 | 162° | 7km/h | 25914m | 7.2m/s | -49.2°C | 0.7% | 0hPa | 5.4V | 00:00:00 | 00:00:00 | 00:00:00 | |
| OM5KV | 2026-09-04 18:27:20 | 44.42780 | 20.61577 | 152° | 11km/h | 25907m | 6.8m/s | -49.2°C | 0.7% | 0hPa | 5.4V | 00:00:00 | 00:00:00 | 00:00:00 | |
| OM5KV | 2026-09-04 18:27:15 | 44.42790 | 20.61577 | 284° | 7km/h | 25874m | 5.1m/s | -49.5°C | 0.7% | 0hPa | 5.4V | 00:00:00 | 00:00:00 | 00:00:00 | |
| OM5KV | 2026-09-04 18:27:09 | 44.42785 | 20.61555 | 35° | 11km/h | 25834m | 7.2m/s | -49.8°C | 0.8% | 0hPa | 5.4V | 00:00:00 | 00:00:00 | 00:00:00 | |
| OM5KV | 2026-09-04 18:27:05 | 44.42780 | 20.61561 | 0° | 0km/h | 25805m | 6.4m/s | -49.6°C | 0.7% | 0hPa | 5.4V | 00:00:00 | 00:00:00 | 00:00:00 | |
| OM5KV | 2026-09-04 18:27:02 | 44.42771 | 20.61556 | 31° | 18km/h | 25786m | 7.3m/s | -49.6°C | 0.7% | 0hPa | 5.4V | 00:00:00 | 00:00:00 | 00:00:00 | |
| OM5KV | 2026-09-04 18:26:58 | 44.42753 | 20.61559 | 330° | 7km/h | 25757m | 8.1m/s | -49.7°C | 0.7% | 0hPa | 5.4V | 00:00:00 | 00:00:00 | 00:00:00 | |
| OM5KV | 2026-09-04 18:26:57 | 44.42752 | 20.61561 | 251° | 7km/h | 25750m | 6.1m/s | -49.7°C | 0.7% | 0hPa | 5.4V | 00:00:00 | 00:00:00 | 00:00:00 | |
| OE3JTB-15 | 2026-09-04 18:26:51 | 44.42722 | 20.61571 | 2° | 22km/h | 25711m | 6.7m/s | -49.1°C | 0% | 0hPa | 5.4V | 00:00:00 | 00:00:00 | 00:00:00 | |
| LZ4TU-5 | 2026-09-04 18:26:46 | 44.42702 | 20.61571 | 325° | 15km/h | 25676m | 5.6m/s | -49.6°C | 0.6% | 0hPa | 5.5V | 00:00:00 | 00:00:00 | 00:00:00 | |
| LZ4TU-5 | 2026-09-04 18:26:42 | 44.42682 | 20.61594 | 333° | 35km/h | 25651m | 6.9m/s | -49.7°C | 0.6% | 0hPa | 5.5V | 00:00:00 | 00:00:00 | 00:00:00 | |
| GYPAP8-17 | 2026-09-04 18:26:33 | 44.42642 | 20.61622 | 298° | 29km/h | 25590m | 5.8m/s | -49.8°C | 0.6% | 0hPa | 5.5V | 00:00:00 | 00:00:00 | 00:00:00 | |
| OE3JTB-15 | 2026-09-04 18:26:21 | 44.42620 | 20.61681 | 260° | 22km/h | 25516m | 4.0m/s | -49.9°C | 0% | 0hPa | 5.5V | 00:00:00 | 00:00:00 | 00:00:00 | |
| OM5KV | 2026-09-04 18:26:17 | 44.42620 | 20.61729 | 280° | 35km/h | 25495m | 5.4m/s | -50.9°C | 0.8% | 0hPa | 5.5V | 00:00:00 | 00:00:00 | 00:00:00 | |
| OM5KV | 2026-09-04 18:26:03 | 44.42645 | 20.61845 | 297° | 18km/h | 25407m | 5.7m/s | -51.0°C | 0.8% | 0hPa | 5.5V | 00:00:00 | 00:00:00 | 00:00:00 | |
| GYPAP8-17 | 2026-09-04 18:25:53 | 44.42672 | 20.61888 | 182° | 15km/h | 25345m | 7.2m/s | -51.6°C | 0.9% | 0hPa | 5.5V | 00:00:00 | 00:00:00 | 00:00:00 | |
| OE3JTB-15 | 2026-09-04 18:25:50 | 44.42680 | 20.61894 | 220° | 15km/h | 25326m | 6.6m/s | -51.0°C | 0% | 0hPa | 5.5V | 00:00:00 | 00:00:00 | 00:00:00 | |
| LZ4TU-5 | 2026-09-04 18:25:22 | 44.42771 | 20.61925 | 158° | 26km/h | 25155m | 5.9m/s | -51.5°C | 1.0% | 0hPa | 5.5V | 00:00:00 | 00:00:00 | 00:00:00 | |
| OE3JTB-15 | 2026-09-04 18:25:21 | 44.42777 | 20.61921 | 153° | 18km/h | 25149m | 5.6m/s | -50.8°C | 0% | 0hPa | 5.5V | 00:00:00 | 00:00:00 | 00:00:00 | |
| LZ4TU-5 | 2026-09-04 18:25:17 | 44.42789 | 20.61917 | 210° | 9km/h | 25125m | 5.9m/s | -51.4°C | 0.9% | 0hPa | 5.5V | 00:00:00 | 00:00:00 | 00:00:00 | |
| OM5KV | 2026-09-04 18:25:10 | 44.42813 | 20.61929 | 194° | 13km/h | 25081m | 7.0m/s | -51.2°C | 0.9% | 0hPa | 5.5V | 00:00:00 | 00:00:00 | 00:00:00 | |
| OM5KV | 2026-09-04 18:25:07 | 44.42822 | 20.61927 | 156° | 33km/h | 25062m | 6.1m/s | -51.1°C | 0.9% | 0hPa | 5.5V | 00:00:00 | 00:00:00 | 00:00:00 | |
| GYPAP8-17 | 2026-09-04 18:25:06 | 44.42827 | 20.61925 | 228° | 11km/h | 25055m | 4.9m/s | -51.1°C | 0.9% | 0hPa | 5.5V | 00:00:00 | 00:00:00 | 00:00:00 | |
| OM5KV | 2026-09-04 18:25:02 | 44.42830 | 20.61935 | 0° | 0km/h | 25034m | 5.7m/s | -51.1°C | 0.8% | 0hPa | 5.5V | 00:00:00 | 00:00:00 | 00:00:00 | |
| OM5KV | 2026-09-04 18:24:56 | 44.42853 | 20.61934 | 128° | 5km/h | 24999m | 6.2m/s | -51.2°C | 0.9% | 0hPa | 5.5V | 00:00:00 | 00:00:00 | 00:00:00 | |
| OM5KV | 2026-09-04 18:24:52 | 44.42854 | 20.61938 | 179° | 22km/h | 24973m | 5.7m/s | -51.3°C | 0.9% | 0hPa | 5.5V | 00:00:00 | 00:00:00 | 00:00:00 | |
| OM5KV | 2026-09-04 18:24:51 | 44.42860 | 20.61938 | 178° | 20km/h | 24968m | 5.8m/s | -51.3°C | 0.9% | 0hPa | 5.5V | 00:00:00 | 00:00:00 | 00:00:00 | |
| OM5KV | 2026-09-04 18:24:47 | 44.42883 | 20.61938 | 190° | 26km/h | 24944m | 5.8m/s | -51.4°C | 0.9% | 0hPa | 5.5V | 00:00:00 | 00:00:00 | 00:00:00 | |
| GYPAP8-17 | 2026-09-04 18:24:46 | 44.42887 | 20.61940 | 202° | 15km/h | 24938m | 5.4m/s | -51.4°C | 0.9% | 0hPa | 5.5V | 00:00:00 | 00:00:00 | 00:00:00 | |
| OE3JTB-15 | 2026-09-04 18:24:43 | 44.42894 | 20.61940 | 288° | 15km/h | 24920m | 6.3m/s | -50.8°C | 0% | 0hPa | 5.5V | 00:00:00 | 00:00:00 | 00:00:00 | |
| OM5KV | 2026-09-04 18:24:40 | 44.42891 | 20.61951 | 274° | 9km/h | 24903m | 6.3m/s | -51.5°C | 0.9% | 0hPa | 5.5V | 00:00:00 | 00:00:00 | 00:00:00 | |
| OM5KV | 2026-09-04 18:24:34 | 44.42905 | 20.61948 | 153° | 7km/h | 24863m | 7.4m/s | -51.6°C | 1.0% | 0hPa | 5.5V | 00:00:00 | 00:00:00 | 00:00:00 | |
| OM5KV | 2026-09-04 18:24:23 | 44.42911 | 20.61952 | 184° | 15km/h | 24796m | 6.1m/s | -51.6°C | 1.0% | 0hPa | 5.5V | 00:00:00 | 00:00:00 | 00:00:00 | |
| OM5KV | 2026-09-04 18:24:18 | 44.42901 | 20.61955 | 347° | 16km/h | 24766m | 6.2m/s | -51.6°C | 1.0% | 0hPa | 5.5V | 00:00:00 | 00:00:00 | 00:00:00 | |
| OE3JTB-15 | 2026-09-04 18:24:11 | 44.42920 | 20.61980 | 229° | 16km/h | 24724m | 4.6m/s | -50.8°C | 0% | 0hPa | 5.5V | 00:00:00 | 00:00:00 | 00:00:00 | |
| LZ4TU-5 | 2026-09-04 18:23:56 | 44.42961 | 20.62042 | 224° | 22km/h | 24631m | 6.7m/s | -51.7°C | 0.9% | 0hPa | 5.5V | 00:00:00 | 00:00:00 | 00:00:00 | |
| LZ4TU-5 | 2026-09-04 18:23:51 | 44.42974 | 20.62056 | 253° | 13km/h | 24601m | 6.2m/s | -51.6°C | 0.9% | 0hPa | 5.5V | 00:00:00 | 00:00:00 | 00:00:00 | |
| GYPAP8-17 | 2026-09-04 18:23:43 | 44.43001 | 20.62088 | 232° | 13km/h | 24551m | 5.5m/s | -51.9°C | 0.9% | 0hPa | 5.5V | 00:00:00 | 00:00:00 | 00:00:00 | |
| OE3JTB-15 | 2026-09-04 18:23:33 | 44.43025 | 20.62087 | 242° | 13km/h | 24485m | 7.7m/s | -51.2°C | 0% | 0hPa | 5.5V | 00:00:00 | 00:00:00 | 00:00:00 | |
| LZ4TU-5 | 2026-09-04 18:23:18 | 44.43063 | 20.62100 | 237° | 13km/h | 24390m | 5.2m/s | -52.5°C | 1.0% | 0hPa | 5.5V | 00:00:00 | 00:00:00 | 00:00:00 | |
| LZ4TU-5 | 2026-09-04 18:23:14 | 44.43079 | 20.62099 | 152° | 24km/h | 24365m | 5.2m/s | -52.5°C | 1.0% | 0hPa | 5.5V | 00:00:00 | 00:00:00 | 00:00:00 | |
| OM5KV | 2026-09-04 18:23:09 | 44.43086 | 20.62098 | 335° | 4km/h | 24332m | 7.2m/s | -52.6°C | 1.0% | 0hPa | 5.5V | 00:00:00 | 00:00:00 | 00:00:00 | |
| OE3JTB-15 | 2026-09-04 18:23:04 | 44.43090 | 20.62104 | 181° | 9km/h | 24302m | 6.5m/s | -52.0°C | 0% | 0hPa | 5.5V | 00:00:00 | 00:00:00 | 00:00:00 | |
| OM5KV | 2026-09-04 18:23:03 | 44.43092 | 20.62103 | 138° | 7km/h | 24295m | 6.1m/s | -52.6°C | 1.0% | 0hPa | 5.5V | 00:00:00 | 00:00:00 | 00:00:00 | |
| OM5KV | 2026-09-04 18:22:55 | 44.43075 | 20.62111 | 305° | 13km/h | 24245m | 7.5m/s | -52.7°C | 1.0% | 0hPa | 5.5V | 00:00:00 | 00:00:00 | 00:00:00 | |
| OM5KV | 2026-09-04 18:22:49 | 44.43064 | 20.62121 | 356° | 11km/h | 24205m | 8.7m/s | -52.7°C | 1.0% | 0hPa | 5.5V | 00:00:00 | 00:00:00 | 00:00:00 | |
| OM5KV | 2026-09-04 18:22:43 | 44.43060 | 20.62151 | 260° | 15km/h | 24165m | 8.3m/s | -52.8°C | 1.0% | 0hPa | 5.5V | 00:00:00 | 00:00:00 | 00:00:00 | |
| OM5KV | 2026-09-04 18:22:37 | 44.43059 | 20.62157 | 87° | 2km/h | 24126m | 7.4m/s | -53.0°C | 1.1% | 0hPa | 5.5V | 00:00:00 | 00:00:00 | 00:00:00 | |
| OE3JTB-15 | 2026-09-04 18:22:35 | 44.43058 | 20.62158 | 283° | 13km/h | 24115m | 6.9m/s | -52.4°C | 0% | 0hPa | 5.5V | 00:00:00 | 00:00:00 | 00:00:00 | |
| OM5KV | 2026-09-04 18:22:31 | 44.43058 | 20.62173 | 209° | 7km/h | 24089m | 7.7m/s | -53.1°C | 1.1% | 0hPa | 5.5V | 00:00:00 | 00:00:00 | 00:00:00 | |
| LZ4TU-5 | 2026-09-04 18:22:28 | 44.43063 | 20.62169 | 131° | 5km/h | 24070m | 6.2m/s | -53.0°C | 1.0% | 0hPa | 5.5V | 00:00:00 | 00:00:00 | 00:00:00 | |
| OM5KV | 2026-09-04 18:22:25 | 44.43066 | 20.62172 | 231° | 13km/h | 24052m | 7.1m/s | -52.9°C | 1.0% | 0hPa | 5.5V | 00:00:00 | 00:00:00 | 00:00:00 | |
| LZ4TU-5 | 2026-09-04 18:22:23 | 44.43069 | 20.62182 | 269° | 16km/h | 24040m | 7.1m/s | -52.9°C | 1.0% | 0hPa | 5.5V | 00:00:00 | 00:00:00 | 00:00:00 | |
| OM5KV | 2026-09-04 18:22:19 | 44.43066 | 20.62186 | 124° | 9km/h | 24013m | 7.2m/s | -53.1°C | 1.0% | 0hPa | 5.5V | 00:00:00 | 00:00:00 | 00:00:00 | |
| OM5KV | 2026-09-04 18:22:13 | 44.43077 | 20.62164 | 305° | 5km/h | 23974m | 8.3m/s | -53.3°C | 1.1% | 0hPa | 5.5V | 00:00:00 | 00:00:00 | 00:00:00 | |
| OM5KV | 2026-09-04 18:22:07 | 44.43062 | 20.62158 | 90° | 15km/h | 23934m | 5.7m/s | -53.0°C | 1.0% | 0hPa | 5.5V | 00:00:00 | 00:00:00 | 00:00:00 | |
| OE3JTB-15 | 2026-09-04 18:22:02 | 44.43077 | 20.62151 | 247° | 15km/h | 23906m | 4.9m/s | -52.2°C | 0% | 0hPa | 5.5V | 00:00:00 | 00:00:00 | 00:00:00 | |
| OM5KV | 2026-09-04 18:22:01 | 44.43077 | 20.62158 | 272° | 18km/h | 23899m | 7.5m/s | -52.8°C | 0.9% | 0hPa | 5.5V | 00:00:00 | 00:00:00 | 00:00:00 | |
| OM5KV | 2026-09-04 18:21:55 | 44.43065 | 20.62158 | 170° | 16km/h | 23862m | 6.0m/s | -53.0°C | 0.9% | 0hPa | 5.5V | 00:00:00 | 00:00:00 | 00:00:00 | |
| LZ4TU-5 | 2026-09-04 18:21:50 | 44.43075 | 20.62164 | 309° | 18km/h | 23830m | 6.8m/s | -53.5°C | 1.1% | 0hPa | 5.5V | 00:00:00 | 00:00:00 | 00:00:00 | |
| OM5KV | 2026-09-04 18:21:49 | 44.43072 | 20.62169 | 312° | 24km/h | 23823m | 6.8m/s | -53.5°C | 1.1% | 0hPa | 5.5V | 00:00:00 | 00:00:00 | 00:00:00 | |
| LZ4TU-5 | 2026-09-04 18:21:46 | 44.43062 | 20.62184 | 329° | 11km/h | 23806m | 7.3m/s | -53.5°C | 1.1% | 0hPa | 5.5V | 00:00:00 | 00:00:00 | 00:00:00 | |
| OM5KV | 2026-09-04 18:21:43 | 44.43062 | 20.62190 | 229° | 16km/h | 23787m | 7.7m/s | -53.5°C | 1.1% | 0hPa | 5.5V | 00:00:00 | 00:00:00 | 00:00:00 | |
| OM5KV | 2026-09-04 18:21:37 | 44.43066 | 20.62220 | 334° | 11km/h | 23750m | 6.5m/s | -53.5°C | 1.0% | 0hPa | 5.5V | 00:00:00 | 00:00:00 | 00:00:00 | |
| OE3JTB-15 | 2026-09-04 18:21:33 | 44.43068 | 20.62210 | 124° | 13km/h | 23723m | 4.4m/s | -52.8°C | 0% | 0hPa | 5.5V | 00:00:00 | 00:00:00 | 00:00:00 | |
| OM5KV | 2026-09-04 18:21:31 | 44.43073 | 20.62207 | 205° | 11km/h | 23709m | 7.5m/s | -53.6°C | 1.0% | 0hPa | 5.5V | 00:00:00 | 00:00:00 | 00:00:00 | |
| OM5KV | 2026-09-04 18:21:25 | 44.43071 | 20.62219 | 107° | 4km/h | 23673m | 4.8m/s | -53.5°C | 1.0% | 0hPa | 5.5V | 00:00:00 | 00:00:00 | 00:00:00 | |
| OM5KV | 2026-09-04 18:21:19 | 44.43080 | 20.62205 | 179° | 7km/h | 23637m | 3.4m/s | -53.8°C | 1.1% | 0hPa | 5.5V | 00:00:00 | 00:00:00 | 00:00:00 | |
| OM5KV | 2026-09-04 18:21:14 | 44.43071 | 20.62203 | 59° | 16km/h | 23606m | 4.2m/s | -53.8°C | 1.1% | 0hPa | 5.5V | 00:00:00 | 00:00:00 | 00:00:00 | |
| OM5KV | 2026-09-04 18:21:12 | 44.43070 | 20.62192 | 94° | 15km/h | 23592m | 8.7m/s | -53.8°C | 1.1% | 0hPa | 5.5V | 00:00:00 | 00:00:00 | 00:00:00 | |
| OM5KV | 2026-09-04 18:21:06 | 44.43066 | 20.62157 | 58° | 16km/h | 23556m | 8.2m/s | -54.2°C | 1.1% | 0hPa | 5.5V | 00:00:00 | 00:00:00 | 00:00:00 | |
| OE3JTB-15 | 2026-09-04 18:21:03 | 44.43057 | 20.62146 | 21° | 15km/h | 23536m | 7.9m/s | -53.4°C | 0% | 0hPa | 5.5V | 00:00:00 | 00:00:00 | 00:00:00 | |
| OM5KV | 2026-09-04 18:21:02 | 44.43053 | 20.62145 | 12° | 20km/h | 23531m | 4.8m/s | -54.1°C | 1.1% | 0hPa | 5.5V | 00:00:00 | 00:00:00 | 00:00:00 | |
| LZ4TU-5 | 2026-09-04 18:21:01 | 44.43048 | 20.62144 | 10° | 16km/h | 23525m | 7.0m/s | -54.1°C | 1.1% | 0hPa | 5.5V | 00:00:00 | 00:00:00 | 00:00:00 | |
| OM5KV | 2026-09-04 18:21:00 | 44.43045 | 20.62142 | 23° | 9km/h | 23517m | 7.1m/s | -54.1°C | 1.1% | 0hPa | 5.5V | 00:00:00 | 00:00:00 | 00:00:00 | |
| LZ4TU-5 | 2026-09-04 18:20:56 | 44.43034 | 20.62127 | 44° | 22km/h | 23493m | 4.7m/s | -53.9°C | 1.0% | 0hPa | 5.5V | 00:00:00 | 00:00:00 | 00:00:00 | |
| OM5KV | 2026-09-04 18:20:54 | 44.43026 | 20.62119 | 22° | 16km/h | 23480m | 6.8m/s | -53.9°C | 1.0% | 0hPa | 5.5V | 00:00:00 | 00:00:00 | 00:00:00 | |
| OM5KV | 2026-09-04 18:20:48 | 44.43006 | 20.62118 | 39° | 13km/h | 23445m | 7.5m/s | -53.7°C | 0.9% | 0hPa | 5.5V | 00:00:00 | 00:00:00 | 00:00:00 | |
| OM5KV | 2026-09-04 18:20:42 | 44.42992 | 20.62095 | 355° | 18km/h | 23410m | 4.0m/s | -53.7°C | 0.9% | 0hPa | 5.5V | 00:00:00 | 00:00:00 | 00:00:00 | |
| OM5KV | 2026-09-04 18:20:37 | 44.42985 | 20.62094 | 70° | 7km/h | 23379m | 6.6m/s | -53.8°C | 0.9% | 0hPa | 5.5V | 00:00:00 | 00:00:00 | 00:00:00 | |
| OM5KV | 2026-09-04 18:20:31 | 44.42963 | 20.62088 | 327° | 20km/h | 23342m | 6.2m/s | -54.0°C | 0.9% | 0hPa | 5.5V | 00:00:00 | 00:00:00 | 00:00:00 | |
| OE3JTB-15 | 2026-09-04 18:20:29 | 44.42957 | 20.62094 | 311° | 11km/h | 23333m | 5.1m/s | -53.5°C | 0% | 0hPa | 5.5V | 00:00:00 | 00:00:00 | 00:00:00 | |
| OM5KV | 2026-09-04 18:20:25 | 44.42956 | 20.62087 | 50° | 15km/h | 23309m | 6.4m/s | -54.8°C | 1.1% | 0hPa | 5.5V | 00:00:00 | 00:00:00 | 00:00:00 | |
| LZ4TU-5 | 2026-09-04 18:20:23 | 44.42948 | 20.62082 | 5° | 18km/h | 23297m | 6.8m/s | -54.9°C | 1.1% | 0hPa | 5.5V | 00:00:00 | 00:00:00 | 00:00:00 | |
| OM5KV | 2026-09-04 18:20:19 | 44.42940 | 20.62092 | 276° | 11km/h | 23274m | 5.7m/s | -55.2°C | 1.2% | 0hPa | 5.5V | 00:00:00 | 00:00:00 | 00:00:00 | |
| OM5KV | 2026-09-04 18:20:13 | 44.42933 | 20.62101 | 152° | 5km/h | 23239m | 5.7m/s | -55.2°C | 1.2% | 0hPa | 5.5V | 00:00:00 | 00:00:00 | 00:00:00 | |
| OM5KV | 2026-09-04 18:20:08 | 44.42929 | 20.62112 | 295° | 18km/h | 23212m | 6.8m/s | -55.2°C | 1.3% | 0hPa | 5.5V | 00:00:00 | 00:00:00 | 00:00:00 | |
| OM5KV | 2026-09-04 18:20:02 | 44.42934 | 20.62142 | 245° | 18km/h | 23177m | 5.1m/s | -55.3°C | 1.3% | 0hPa | 5.5V | 00:00:00 | 00:00:00 | 00:00:00 | |
| OM5KV | 2026-09-04 18:19:54 | 44.42944 | 20.62161 | 287° | 4km/h | 23130m | 6.9m/s | -55.1°C | 1.2% | 0hPa | 5.5V | 00:00:00 | 00:00:00 | 00:00:00 | |
| OM5KV | 2026-09-04 18:19:48 | 44.42956 | 20.62164 | 213° | 7km/h | 23095m | 6.1m/s | -55.0°C | 1.2% | 0hPa | 5.5V | 00:00:00 | 00:00:00 | 00:00:00 | |
| OM5KV | 2026-09-04 18:19:42 | 44.42965 | 20.62161 | 162° | 13km/h | 23057m | 6.3m/s | -54.8°C | 1.2% | 0hPa | 5.5V | 00:00:00 | 00:00:00 | 00:00:00 | |
| OM5KV | 2026-09-04 18:19:36 | 44.42978 | 20.62154 | 134° | 13km/h | 23023m | 7.4m/s | -55.0°C | 1.2% | 0hPa | 5.5V | 00:00:00 | 00:00:00 | 00:00:00 | |
| LZ4TU-5 | 2026-09-04 18:19:35 | 44.42981 | 20.62151 | 145° | 18km/h | 23018m | 4.8m/s | -55.0°C | 1.2% | 0hPa | 5.5V | 00:00:00 | 00:00:00 | 00:00:00 | |
| OM5KV | 2026-09-04 18:19:30 | 44.43000 | 20.62145 | 181° | 15km/h | 22989m | 5.4m/s | -55.2°C | 1.3% | 0hPa | 5.5V | 00:00:00 | 00:00:00 | 00:00:00 | |
| OM5KV | 2026-09-04 18:19:24 | 44.43023 | 20.62127 | 147° | 20km/h | 22956m | 6.8m/s | -55.0°C | 1.2% | 0hPa | 5.5V | 00:00:00 | 00:00:00 | 00:00:00 | |
| OM5KV | 2026-09-04 18:19:18 | 44.43044 | 20.62113 | 147° | 7km/h | 22917m | 7.6m/s | -55.2°C | 1.3% | 0hPa | 5.5V | 00:00:00 | 00:00:00 | 00:00:00 | |
| OM5KV | 2026-09-04 18:19:13 | 44.43056 | 20.62090 | 125° | 15km/h | 22888m | 5.5m/s | -55.2°C | 1.3% | 0hPa | 5.5V | 00:00:00 | 00:00:00 | 00:00:00 | |
| OM5KV | 2026-09-04 18:19:12 | 44.43058 | 20.62086 | 133° | 13km/h | 22883m | 5.2m/s | -55.2°C | 1.3% | 0hPa | 5.5V | 00:00:00 | 00:00:00 | 00:00:00 | |
| OM5KV | 2026-09-04 18:19:06 | 44.43069 | 20.62058 | 73° | 18km/h | 22848m | 5.4m/s | -55.1°C | 1.4% | 0hPa | 5.5V | 00:00:00 | 00:00:00 | 00:00:00 | |
| OM5KV | 2026-09-04 18:19:02 | 44.43067 | 20.62034 | 103° | 9km/h | 22823m | 9.4m/s | -55.1°C | 1.4% | 0hPa | 5.5V | 00:00:00 | 00:00:00 | 00:00:00 | |
| OM5KV | 2026-09-04 18:18:59 | 44.43073 | 20.62035 | 172° | 11km/h | 22805m | 7.8m/s | -55.1°C | 1.4% | 0hPa | 5.5V | 00:00:00 | 00:00:00 | 00:00:00 | |
| LZ4TU-5 | 2026-09-04 18:18:56 | 44.43073 | 20.62022 | 62° | 20km/h | 22790m | 4.2m/s | -55.1°C | 1.4% | 0hPa | 5.5V | 00:00:00 | 00:00:00 | 00:00:00 | |
| LZ4TU-5 | 2026-09-04 18:18:51 | 44.43066 | 20.62008 | 125° | 7km/h | 22758m | 6.0m/s | -54.9°C | 1.3% | 0hPa | 5.5V | 00:00:00 | 00:00:00 | 00:00:00 | |
| OM5KV | 2026-09-04 18:18:46 | 44.43066 | 20.61991 | 70° | 18km/h | 22725m | 6.9m/s | -54.9°C | 1.4% | 0hPa | 5.5V | 00:00:00 | 00:00:00 | 00:00:00 | |
| OM5KV | 2026-09-04 18:18:40 | 44.43056 | 20.61972 | 151° | 5km/h | 22690m | 7.3m/s | -54.9°C | 1.4% | 0hPa | 5.5V | 00:00:00 | 00:00:00 | 00:00:00 | |
| OM5KV | 2026-09-04 18:18:37 | 44.43064 | 20.61963 | 135° | 15km/h | 22672m | 6.1m/s | -54.9°C | 1.4% | 0hPa | 5.5V | 00:00:00 | 00:00:00 | 00:00:00 | |
| OM5KV | 2026-09-04 18:18:34 | 44.43063 | 20.61954 | 34° | 15km/h | 22654m | 6.1m/s | -54.8°C | 1.4% | 0hPa | 5.5V | 00:00:00 | 00:00:00 | 00:00:00 | |
| OM5KV | 2026-09-04 18:18:32 | 44.43056 | 20.61948 | 27° | 15km/h | 22642m | 5.1m/s | -54.8°C | 1.4% | 0hPa | 5.5V | 00:00:00 | 00:00:00 | 00:00:00 | |
| OM5KV | 2026-09-04 18:18:31 | 44.43053 | 20.61947 | 8° | 11km/h | 22635m | 7.1m/s | -54.8°C | 1.4% | 0hPa | 5.5V | 00:00:00 | 00:00:00 | 00:00:00 | |
| OE3JTB-15 | 2026-09-04 18:18:27 | 44.43054 | 20.61943 | 129° | 9km/h | 22609m | 7.3m/s | -54.0°C | 0% | 0hPa | 5.5V | 00:00:00 | 00:00:00 | 00:00:00 | |
| OM5KV | 2026-09-04 18:18:17 | 44.43042 | 20.61920 | 36° | 13km/h | 22550m | 6.5m/s | -54.9°C | 1.4% | 0hPa | 5.5V | 00:00:00 | 00:00:00 | 00:00:00 | |
| OM5KV | 2026-09-04 18:18:14 | 44.43039 | 20.61908 | 90° | 11km/h | 22530m | 6.3m/s | -54.9°C | 1.4% | 0hPa | 5.5V | 00:00:00 | 00:00:00 | 00:00:00 | |
| OM5KV | 2026-09-04 18:18:09 | 44.43029 | 20.61894 | 341° | 5km/h | 22499m | 7.2m/s | -54.7°C | 1.4% | 0hPa | 5.5V | 00:00:00 | 00:00:00 | 00:00:00 | |
| OM5KV | 2026-09-04 18:18:06 | 44.43026 | 20.61898 | 322° | 9km/h | 22482m | 6.9m/s | -54.6°C | 1.4% | 0hPa | 5.5V | 00:00:00 | 00:00:00 | 00:00:00 | |
| OM5KV | 2026-09-04 18:18:05 | 44.43024 | 20.61901 | 318° | 11km/h | 22476m | 5.2m/s | -54.5°C | 1.4% | 0hPa | 5.5V | 00:00:00 | 00:00:00 | 00:00:00 | |
| OM5KV | 2026-09-04 18:18:03 | 44.43022 | 20.61904 | 343° | 2km/h | 22463m | 6.5m/s | -54.5°C | 1.4% | 0hPa | 5.5V | 00:00:00 | 00:00:00 | 00:00:00 | |
| LZ4TU-5 | 2026-09-04 18:18:01 | 44.43021 | 20.61902 | 48° | 9km/h | 22452m | 4.8m/s | -54.4°C | 1.3% | 0hPa | 5.5V | 00:00:00 | 00:00:00 | 00:00:00 | |
| OM5KV | 2026-09-04 18:18:00 | 44.43018 | 20.61900 | 24° | 9km/h | 22445m | 7.1m/s | -54.4°C | 1.3% | 0hPa | 5.5V | 00:00:00 | 00:00:00 | 00:00:00 | |
| OE3JTB-15 | 2026-09-04 18:17:58 | 44.43013 | 20.61902 | 325° | 13km/h | 22437m | 4.4m/s | -53.6°C | 0% | 0hPa | 5.5V | 00:00:00 | 00:00:00 | 00:00:00 | |
| OM5KV | 2026-09-04 18:17:50 | 44.43008 | 20.61920 | 26° | 5km/h | 22383m | 5.1m/s | -54.2°C | 1.2% | 0hPa | 5.5V | 00:00:00 | 00:00:00 | 00:00:00 | |
| OM5KV | 2026-09-04 18:17:47 | 44.43000 | 20.61921 | 324° | 13km/h | 22364m | 4.8m/s | -54.3°C | 1.2% | 0hPa | 5.5V | 00:00:00 | 00:00:00 | 00:00:00 | |
| OM5KV | 2026-09-04 18:17:44 | 44.42997 | 20.61934 | 247° | 13km/h | 22345m | 6.3m/s | -54.4°C | 1.3% | 0hPa | 5.5V | 00:00:00 | 00:00:00 | 00:00:00 | |
| OM5KV | 2026-09-04 18:17:42 | 44.43001 | 20.61940 | 216° | 9km/h | 22333m | 6.7m/s | -54.6°C | 1.3% | 0hPa | 5.5V | 00:00:00 | 00:00:00 | 00:00:00 | |
| OM5KV | 2026-09-04 18:17:41 | 44.43002 | 20.61942 | 302° | 4km/h | 22327m | 6.0m/s | -54.6°C | 1.3% | 0hPa | 5.5V | 00:00:00 | 00:00:00 | 00:00:00 | |
| OM5KV | 2026-09-04 18:17:38 | 44.42995 | 20.61945 | 319° | 11km/h | 22308m | 6.3m/s | -54.7°C | 1.3% | 0hPa | 5.5V | 00:00:00 | 00:00:00 | 00:00:00 | |
| OM5KV | 2026-09-04 18:17:35 | 44.42992 | 20.61960 | 263° | 16km/h | 22290m | 5.8m/s | -54.8°C | 1.4% | 0hPa | 5.5V | 00:00:00 | 00:00:00 | 00:00:00 | |
| OM5KV | 2026-09-04 18:17:31 | 44.43007 | 20.61986 | 213° | 22km/h | 22269m | 4.8m/s | -54.7°C | 1.4% | 0hPa | 5.5V | 00:00:00 | 00:00:00 | 00:00:00 | |
| OM5KV | 2026-09-04 18:17:26 | 44.43007 | 20.61996 | 300° | 16km/h | 22235m | 4.4m/s | -54.9°C | 1.4% | 0hPa | 5.5V | 00:00:00 | 00:00:00 | 00:00:00 | |
| OM5KV | 2026-09-04 18:17:21 | 44.43010 | 20.62029 | 226° | 27km/h | 22205m | 4.4m/s | -54.8°C | 1.4% | 0hPa | 5.5V | 00:00:00 | 00:00:00 | 00:00:00 | |
| OM5KV | 2026-09-04 18:17:20 | 44.43014 | 20.62035 | 207° | 24km/h | 22199m | 6.2m/s | -54.8°C | 1.4% | 0hPa | 5.5V | 00:00:00 | 00:00:00 | 00:00:00 | |
| OM5KV | 2026-09-04 18:17:15 | 44.43027 | 20.62028 | 276° | 5km/h | 22167m | 3.3m/s | -54.8°C | 1.4% | 0hPa | 5.5V | 00:00:00 | 00:00:00 | 00:00:00 | |
| OM5KV | 2026-09-04 18:17:14 | 44.43027 | 20.62030 | 266° | 7km/h | 22162m | 6.1m/s | -54.8°C | 1.4% | 0hPa | 5.5V | 00:00:00 | 00:00:00 | 00:00:00 | |
| OM5KV | 2026-09-04 18:16:54 | 44.43104 | 20.62021 | 140° | 16km/h | 22039m | 5.9m/s | -55.3°C | 1.6% | 0hPa | 5.5V | 00:00:00 | 00:00:00 | 00:00:00 | |
| OE3JTB-15 | 2026-09-04 18:16:51 | 44.43112 | 20.62015 | 193° | 20km/h | 22022m | 7.0m/s | -54.5°C | 0% | 0hPa | 5.5V | 00:00:00 | 00:00:00 | 00:00:00 | |
| OM5KV | 2026-09-04 18:16:48 | 44.43125 | 20.62019 | 170° | 20km/h | 22004m | 7.1m/s | -55.3°C | 1.7% | 0hPa | 5.6V | 00:00:00 | 00:00:00 | 00:00:00 | |
| LZ4TU-5 | 2026-09-04 18:16:45 | 44.43138 | 20.62007 | 136° | 18km/h | 21986m | 6.1m/s | -55.3°C | 1.7% | 0hPa | 5.6V | 00:00:00 | 00:00:00 | 00:00:00 | |
| LZ4TU-5 | 2026-09-04 18:16:41 | 44.43155 | 20.61991 | 168° | 22km/h | 21962m | 5.6m/s | -55.3°C | 1.7% | 0hPa | 5.6V | 00:00:00 | 00:00:00 | 00:00:00 | |
| OM5KV | 2026-09-04 18:16:35 | 44.43188 | 20.61980 | 154° | 26km/h | 21926m | 5.2m/s | -55.3°C | 1.7% | 0hPa | 5.6V | 00:00:00 | 00:00:00 | 00:00:00 | |
| OE3JTB-15 | 2026-09-04 18:16:09 | 44.43297 | 20.61856 | 108° | 20km/h | 21769m | 5.8m/s | -53.6°C | 0% | 0hPa | 5.6V | 00:00:00 | 00:00:00 | 00:00:00 | |
| OM5KV | 2026-09-04 18:15:55 | 44.43339 | 20.61769 | 143° | 20km/h | 21690m | 6.5m/s | -54.4°C | 1.5% | 0hPa | 5.6V | 00:00:00 | 00:00:00 | 00:00:00 | |
| OM5KV | 2026-09-04 18:15:43 | 44.43364 | 20.61673 | 104° | 18km/h | 21620m | 4.9m/s | -54.5°C | 1.5% | 0hPa | 5.6V | 00:00:00 | 00:00:00 | 00:00:00 | |
| OM5KV | 2026-09-04 18:15:39 | 44.43375 | 20.61646 | 125° | 20km/h | 21597m | 5.8m/s | -54.5°C | 1.5% | 0hPa | 5.6V | 00:00:00 | 00:00:00 | 00:00:00 | |
| OM5KV | 2026-09-04 18:15:38 | 44.43378 | 20.61640 | 118° | 22km/h | 21591m | 5.2m/s | -54.5°C | 1.5% | 0hPa | 5.6V | 00:00:00 | 00:00:00 | 00:00:00 | |
| OM5KV | 2026-09-04 18:15:32 | 44.43384 | 20.61602 | 113° | 7km/h | 21559m | 5.1m/s | -54.7°C | 1.5% | 0hPa | 5.6V | 00:00:00 | 00:00:00 | 00:00:00 | |
| OM5KV | 2026-09-04 18:15:27 | 44.43400 | 20.61559 | 128° | 27km/h | 21526m | 4.6m/s | -54.9°C | 1.5% | 0hPa | 5.6V | 00:00:00 | 00:00:00 | 00:00:00 | |
| LZ4TU-5 | 2026-09-04 18:15:25 | 44.43405 | 20.61551 | 133° | 29km/h | 21519m | 6.5m/s | -54.9°C | 1.5% | 0hPa | 5.6V | 00:00:00 | 00:00:00 | 00:00:00 | |
| OM5KV | 2026-09-04 18:15:21 | 44.43426 | 20.61529 | 146° | 15km/h | 21494m | 5.0m/s | -55.1°C | 1.6% | 0hPa | 5.6V | 00:00:00 | 00:00:00 | 00:00:00 | |
| OM5KV | 2026-09-04 18:15:20 | 44.43429 | 20.61525 | 130° | 13km/h | 21489m | 5.6m/s | -55.2°C | 1.6% | 0hPa | 5.6V | 00:00:00 | 00:00:00 | 00:00:00 | |
| OM5KV | 2026-09-04 18:15:16 | 44.43438 | 20.61494 | 101° | 20km/h | 21461m | 4.8m/s | -55.3°C | 1.6% | 0hPa | 5.6V | 00:00:00 | 00:00:00 | 00:00:00 | |
| OM5KV | 2026-09-04 18:15:09 | 44.43457 | 20.61467 | 157° | 9km/h | 21427m | 4.2m/s | -55.2°C | 1.6% | 0hPa | 5.6V | 00:00:00 | 00:00:00 | 00:00:00 | |
| GYPAP8-17 | 2026-09-04 18:15:05 | 44.43463 | 20.61455 | 100° | 15km/h | 21404m | 5.9m/s | -55.1°C | 1.5% | 0hPa | 5.6V | 00:00:00 | 00:00:00 | 00:00:00 | |
| OM5KV | 2026-09-04 18:15:03 | 44.43464 | 20.61448 | 108° | 7km/h | 21394m | 2.9m/s | -55.0°C | 1.5% | 0hPa | 5.6V | 00:00:00 | 00:00:00 | 00:00:00 | |
| OM5KV | 2026-09-04 18:14:57 | 44.43476 | 20.61431 | 150° | 9km/h | 21358m | 4.9m/s | -55.2°C | 1.5% | 0hPa | 5.6V | 00:00:00 | 00:00:00 | 00:00:00 | |
| OM5KV | 2026-09-04 18:14:56 | 44.43479 | 20.61429 | 149° | 13km/h | 21352m | 6.6m/s | -55.2°C | 1.5% | 0hPa | 5.6V | 00:00:00 | 00:00:00 | 00:00:00 | |
| GYPAP8-17 | 2026-09-04 18:14:44 | 44.43513 | 20.61404 | 173° | 5km/h | 21285m | 5.6m/s | -55.3°C | 1.6% | 0hPa | 5.6V | 00:00:00 | 00:00:00 | 00:00:00 | |
| OM5KV | 2026-09-04 18:14:41 | 44.43514 | 20.61403 | 103° | 7km/h | 21270m | 4.7m/s | -55.3°C | 1.6% | 0hPa | 5.6V | 00:00:00 | 00:00:00 | 00:00:00 | |
| OM5KV | 2026-09-04 18:14:34 | 44.43530 | 20.61349 | 99° | 20km/h | 21228m | 6.2m/s | -55.6°C | 1.6% | 0hPa | 5.6V | 00:00:00 | 00:00:00 | 00:00:00 | |
| OM5KV | 2026-09-04 18:14:23 | 44.43546 | 20.61301 | 81° | 16km/h | 21164m | 5.9m/s | -56.0°C | 1.7% | 0hPa | 5.6V | 00:00:00 | 00:00:00 | 00:00:00 | |
| OM5KV | 2026-09-04 18:14:22 | 44.43546 | 20.61295 | 88° | 16km/h | 21157m | 6.6m/s | -56.0°C | 1.7% | 0hPa | 5.6V | 00:00:00 | 00:00:00 | 00:00:00 | |
| OM5KV | 2026-09-04 18:14:21 | 44.43546 | 20.61290 | 102° | 15km/h | 21152m | 4.9m/s | -56.0°C | 1.7% | 0hPa | 5.6V | 00:00:00 | 00:00:00 | 00:00:00 | |
| OM5KV | 2026-09-04 18:14:17 | 44.43548 | 20.61276 | 110° | 7km/h | 21130m | 5.2m/s | -55.9°C | 1.8% | 0hPa | 5.6V | 00:00:00 | 00:00:00 | 00:00:00 | |
| OM5KV | 2026-09-04 18:14:15 | 44.43552 | 20.61267 | 124° | 24km/h | 21118m | 5.4m/s | -55.9°C | 1.8% | 0hPa | 5.6V | 00:00:00 | 00:00:00 | 00:00:00 | |
| OM5KV | 2026-09-04 18:14:14 | 44.43555 | 20.61260 | 120° | 27km/h | 21113m | 4.9m/s | -55.9°C | 1.8% | 0hPa | 5.6V | 00:00:00 | 00:00:00 | 00:00:00 | |
| OM5KV | 2026-09-04 18:14:08 | 44.43556 | 20.61219 | 104° | 7km/h | 21078m | 5.7m/s | -55.8°C | 1.7% | 0hPa | 5.6V | 00:00:00 | 00:00:00 | 00:00:00 | |
| LZ4TU-5 | 2026-09-04 18:14:04 | 44.43563 | 20.61208 | 119° | 26km/h | 21055m | 6.2m/s | -55.7°C | 1.7% | 0hPa | 5.6V | 00:00:00 | 00:00:00 | 00:00:00 | |
| OM5KV | 2026-09-04 18:14:03 | 44.43566 | 20.61198 | 102° | 31km/h | 21050m | 4.7m/s | -55.7°C | 1.7% | 0hPa | 5.6V | 00:00:00 | 00:00:00 | 00:00:00 | |
| OM5KV | 2026-09-04 18:14:00 | 44.43562 | 20.61168 | 57° | 26km/h | 21031m | 5.8m/s | -55.6°C | 1.7% | 0hPa | 5.6V | 00:00:00 | 00:00:00 | 00:00:00 | |
| LZ4TU-5 | 2026-09-04 18:13:59 | 44.43558 | 20.61161 | 55° | 22km/h | 21024m | 6.8m/s | -55.6°C | 1.7% | 0hPa | 5.6V | 00:00:00 | 00:00:00 | 00:00:00 | |
| OM5KV | 2026-09-04 18:13:57 | 44.43553 | 20.61152 | 53° | 11km/h | 21012m | 7.0m/s | -55.6°C | 1.7% | 0hPa | 5.6V | 00:00:00 | 00:00:00 | 00:00:00 | |
| OM5KV | 2026-09-04 18:13:52 | 44.43554 | 20.61127 | 83° | 37km/h | 20983m | 4.5m/s | -55.8°C | 1.8% | 0hPa | 5.6V | 00:00:00 | 00:00:00 | 00:00:00 | |
| OM5KV | 2026-09-04 18:13:51 | 44.43552 | 20.61114 | 76° | 40km/h | 20977m | 6.2m/s | -55.8°C | 1.8% | 0hPa | 5.6V | 00:00:00 | 00:00:00 | 00:00:00 | |
| OM5KV | 2026-09-04 18:13:48 | 44.43538 | 20.61085 | 36° | 26km/h | 20961m | 4.7m/s | -55.9°C | 1.8% | 0hPa | 5.6V | 00:00:00 | 00:00:00 | 00:00:00 | |
| OM5KV | 2026-09-04 18:13:42 | 44.43529 | 20.61062 | 67° | 20km/h | 20925m | 6.0m/s | -55.7°C | 1.8% | 0hPa | 5.6V | 00:00:00 | 00:00:00 | 00:00:00 | |
| OM5KV | 2026-09-04 18:13:41 | 44.43526 | 20.61055 | 68° | 24km/h | 20917m | 7.6m/s | -55.7°C | 1.8% | 0hPa | 5.6V | 00:00:00 | 00:00:00 | 00:00:00 | |
| OM5KV | 2026-09-04 18:13:40 | 44.43524 | 20.61046 | 70° | 29km/h | 20910m | 6.2m/s | -55.6°C | 1.8% | 0hPa | 5.6V | 00:00:00 | 00:00:00 | 00:00:00 | |
| OM5KV | 2026-09-04 18:13:37 | 44.43516 | 20.61018 | 64° | 26km/h | 20894m | 5.9m/s | -55.6°C | 1.8% | 0hPa | 5.6V | 00:00:00 | 00:00:00 | 00:00:00 | |
| OM5KV | 2026-09-04 18:13:33 | 44.43510 | 20.60993 | 117° | 15km/h | 20871m | 5.9m/s | -55.5°C | 1.7% | 0hPa | 5.6V | 00:00:00 | 00:00:00 | 00:00:00 | |
| OM5KV | 2026-09-04 18:13:26 | 44.43501 | 20.60951 | 63° | 18km/h | 20832m | 4.2m/s | -55.4°C | 1.7% | 0hPa | 5.6V | 00:00:00 | 00:00:00 | 00:00:00 | |
| OM5KV | 2026-09-04 18:13:09 | 44.43474 | 20.60890 | 69° | 9km/h | 20732m | 5.9m/s | -55.6°C | 1.7% | 0hPa | 5.6V | 00:00:00 | 00:00:00 | 00:00:00 | |
| OM5KV | 2026-09-04 18:13:07 | 44.43474 | 20.60884 | 122° | 9km/h | 20720m | 5.5m/s | -55.6°C | 1.7% | 0hPa | 5.6V | 00:00:00 | 00:00:00 | 00:00:00 | |
| OM5KV | 2026-09-04 18:13:03 | 44.43473 | 20.60856 | 69° | 35km/h | 20697m | 5.4m/s | -55.6°C | 1.7% | 0hPa | 5.6V | 00:00:00 | 00:00:00 | 00:00:00 | |
| OM5KV | 2026-09-04 18:13:02 | 44.43469 | 20.60846 | 59° | 31km/h | 20690m | 7.8m/s | -55.6°C | 1.7% | 0hPa | 5.6V | 00:00:00 | 00:00:00 | 00:00:00 | |
| OM5KV | 2026-09-04 18:12:51 | 44.43430 | 20.60778 | 54° | 40km/h | 20627m | 6.0m/s | -56.2°C | 1.9% | 0hPa | 5.6V | 00:00:00 | 00:00:00 | 00:00:00 | |
| OM5KV | 2026-09-04 18:12:49 | 44.43416 | 20.60758 | 39° | 38km/h | 20617m | 3.9m/s | -56.2°C | 1.9% | 0hPa | 5.6V | 00:00:00 | 00:00:00 | 00:00:00 | |
| OM5KV | 2026-09-04 18:12:46 | 44.43401 | 20.60739 | 56° | 16km/h | 20600m | 4.6m/s | -56.1°C | 1.8% | 0hPa | 5.6V | 00:00:00 | 00:00:00 | 00:00:00 | |
| LZ4TU-5 | 2026-09-04 18:12:44 | 44.43395 | 20.60730 | 44° | 16km/h | 20588m | 5.3m/s | -56.0°C | 1.8% | 0hPa | 5.6V | 00:00:00 | 00:00:00 | 00:00:00 | |
| OM5KV | 2026-09-04 18:12:43 | 44.43392 | 20.60726 | 40° | 15km/h | 20582m | 6.0m/s | -56.0°C | 1.9% | 0hPa | 5.6V | 00:00:00 | 00:00:00 | 00:00:00 | |
| OM5KV | 2026-09-04 18:12:40 | 44.43380 | 20.60714 | 37° | 29km/h | 20564m | 7.3m/s | -56.1°C | 1.9% | 0hPa | 5.6V | 00:00:00 | 00:00:00 | 00:00:00 | |
| OM5KV | 2026-09-04 18:12:34 | 44.43341 | 20.60678 | 12° | 15km/h | 20530m | 6.5m/s | -56.4°C | 2.0% | 0hPa | 5.6V | 00:00:00 | 00:00:00 | 00:00:00 | |
| OM5KV | 2026-09-04 18:12:33 | 44.43337 | 20.60676 | 25° | 13km/h | 20525m | 5.7m/s | -56.4°C | 2.0% | 0hPa | 5.6V | 00:00:00 | 00:00:00 | 00:00:00 | |
| OM5KV | 2026-09-04 18:12:28 | 44.43318 | 20.60664 | 21° | 16km/h | 20497m | 6.0m/s | -56.3°C | 1.9% | 0hPa | 5.6V | 00:00:00 | 00:00:00 | 00:00:00 | |
| OM5KV | 2026-09-04 18:12:27 | 44.43314 | 20.60662 | 33° | 18km/h | 20490m | 6.7m/s | -56.3°C | 1.9% | 0hPa | 5.6V | 00:00:00 | 00:00:00 | 00:00:00 | |
| OM5KV | 2026-09-04 18:12:24 | 44.43301 | 20.60653 | 9° | 20km/h | 20473m | 5.0m/s | -56.1°C | 1.9% | 0hPa | 5.6V | 00:00:00 | 00:00:00 | 00:00:00 | |
| OM5KV | 2026-09-04 18:12:23 | 44.43295 | 20.60652 | 9° | 22km/h | 20468m | 5.2m/s | -56.1°C | 1.9% | 0hPa | 5.6V | 00:00:00 | 00:00:00 | 00:00:00 | |
| OM5KV | 2026-09-04 18:12:18 | 44.43268 | 20.60646 | 352° | 26km/h | 20438m | 5.2m/s | -56.1°C | 1.9% | 0hPa | 5.6V | 00:00:00 | 00:00:00 | 00:00:00 | |
| OM5KV | 2026-09-04 18:12:17 | 44.43261 | 20.60647 | 357° | 26km/h | 20432m | 6.6m/s | -56.1°C | 1.9% | 0hPa | 5.6V | 00:00:00 | 00:00:00 | 00:00:00 | |
| OM5KV | 2026-09-04 18:12:16 | 44.43255 | 20.60647 | 8° | 24km/h | 20425m | 6.2m/s | -56.1°C | 1.9% | 0hPa | 5.6V | 00:00:00 | 00:00:00 | 00:00:00 | |
| OM5KV | 2026-09-04 18:12:10 | 44.43223 | 20.60640 | 9° | 20km/h | 20391m | 6.2m/s | -56.1°C | 1.9% | 0hPa | 5.6V | 00:00:00 | 00:00:00 | 00:00:00 | |
| OM5KV | 2026-09-04 18:12:06 | 44.43203 | 20.60639 | 345° | 22km/h | 20368m | 5.1m/s | -56.1°C | 1.9% | 0hPa | 5.6V | 00:00:00 | 00:00:00 | 00:00:00 | |
| OM5KV | 2026-09-04 18:12:03 | 44.43181 | 20.60643 | 360° | 33km/h | 20351m | 5.2m/s | -56.2°C | 1.9% | 0hPa | 5.6V | 00:00:00 | 00:00:00 | 00:00:00 | |
| OM5KV | 2026-09-04 18:12:00 | 44.43161 | 20.60644 | 360° | 18km/h | 20333m | 5.4m/s | -56.2°C | 1.9% | 0hPa | 5.6V | 00:00:00 | 00:00:00 | 00:00:00 | |
| OM5KV | 2026-09-04 18:11:57 | 44.43150 | 20.60642 | 29° | 9km/h | 20315m | 5.1m/s | -56.4°C | 2.0% | 0hPa | 5.6V | 00:00:00 | 00:00:00 | 00:00:00 | |
| OM5KV | 2026-09-04 18:11:54 | 44.43143 | 20.60642 | 350° | 15km/h | 20298m | 5.6m/s | -56.5°C | 2.0% | 0hPa | 5.6V | 00:00:00 | 00:00:00 | 00:00:00 | |
| OM5KV | 2026-09-04 18:11:51 | 44.43127 | 20.60639 | 13° | 27km/h | 20280m | 4.8m/s | -56.6°C | 2.1% | 0hPa | 5.6V | 00:00:00 | 00:00:00 | 00:00:00 | |
| OM5KV | 2026-09-04 18:11:48 | 44.43106 | 20.60642 | 337° | 27km/h | 20263m | 4.2m/s | -56.8°C | 2.1% | 0hPa | 5.6V | 00:00:00 | 00:00:00 | 00:00:00 | |
| OM5KV | 2026-09-04 18:11:43 | 44.43090 | 20.60646 | 22° | 4km/h | 20230m | 6.1m/s | -56.5°C | 2.1% | 0hPa | 5.6V | 00:00:00 | 00:00:00 | 00:00:00 | |
| OM5KV | 2026-09-04 18:11:42 | 44.43089 | 20.60645 | 18° | 7km/h | 20224m | 5.8m/s | -56.5°C | 2.1% | 0hPa | 5.6V | 00:00:00 | 00:00:00 | 00:00:00 | |
| OM5KV | 2026-09-04 18:11:39 | 44.43077 | 20.60644 | 338° | 15km/h | 20201m | 6.8m/s | -56.4°C | 2.1% | 0hPa | 5.6V | 00:00:00 | 00:00:00 | 00:00:00 | |
| OM5KV | 2026-09-04 18:11:37 | 44.43073 | 20.60648 | 300° | 16km/h | 20194m | 7.0m/s | -56.3°C | 2.1% | 0hPa | 5.6V | 00:00:00 | 00:00:00 | 00:00:00 | |
| OM5KV | 2026-09-04 18:11:36 | 44.43073 | 20.60654 | 274° | 20km/h | 20188m | 6.1m/s | -56.3°C | 2.1% | 0hPa | 5.6V | 00:00:00 | 00:00:00 | 00:00:00 | |
| OM5KV | 2026-09-04 18:11:32 | 44.43073 | 20.60662 | 81° | 13km/h | 20162m | 5.5m/s | -56.1°C | 2.1% | 0hPa | 5.6V | 00:00:00 | 00:00:00 | 00:00:00 | |
| OM5KV | 2026-09-04 18:11:31 | 44.43073 | 20.60658 | 72° | 13km/h | 20155m | 7.7m/s | -56.1°C | 2.1% | 0hPa | 5.6V | 00:00:00 | 00:00:00 | 00:00:00 | |
| OM5KV | 2026-09-04 18:11:26 | 44.43062 | 20.60652 | 1° | 7km/h | 20124m | 5.7m/s | -56.2°C | 2.1% | 0hPa | 5.6V | 00:00:00 | 00:00:00 | 00:00:00 | |
| OM5KV | 2026-09-04 18:11:25 | 44.43061 | 20.60652 | 334° | 5km/h | 20118m | 5.6m/s | -56.2°C | 2.1% | 0hPa | 5.6V | 00:00:00 | 00:00:00 | 00:00:00 | |
| OM5KV | 2026-09-04 18:11:24 | 44.43060 | 20.60654 | 304° | 7km/h | 20112m | 6.2m/s | -56.3°C | 2.1% | 0hPa | 5.6V | 00:00:00 | 00:00:00 | 00:00:00 | |
| OM5KV | 2026-09-04 18:11:21 | 44.43057 | 20.60658 | 66° | 5km/h | 20094m | 6.1m/s | -56.5°C | 2.2% | 0hPa | 5.6V | 00:00:00 | 00:00:00 | 00:00:00 | |
| LZ4TU-5 | 2026-09-04 18:11:20 | 44.43057 | 20.60656 | 94° | 7km/h | 20090m | 4.6m/s | -56.7°C | 2.3% | 0hPa | 5.6V | 00:00:00 | 00:00:00 | 00:00:00 | |
| OM5KV | 2026-09-04 18:11:13 | 44.43067 | 20.60647 | 181° | 9km/h | 20048m | 6.8m/s | -56.6°C | 2.3% | 0hPa | 5.6V | 00:00:00 | 00:00:00 | 00:00:00 | |
| OM5KV | 2026-09-04 18:11:10 | 44.43074 | 20.60643 | 153° | 11km/h | 20031m | 3.8m/s | -56.5°C | 2.3% | 0hPa | 5.6V | 00:00:00 | 00:00:00 | 00:00:00 | |
| OM5KV | 2026-09-04 18:11:03 | 44.43089 | 20.60633 | 154° | 13km/h | 19993m | 4.1m/s | -56.2°C | 2.2% | 0hPa | 5.6V | 00:00:00 | 00:00:00 | 00:00:00 | |
| OM5KV | 2026-09-04 18:10:55 | 44.43101 | 20.60642 | 244° | 5km/h | 19945m | 5.4m/s | -56.3°C | 2.2% | 0hPa | 5.6V | 00:00:00 | 00:00:00 | 00:00:00 | |
| OM5KV | 2026-09-04 18:10:51 | 44.43109 | 20.60644 | 201° | 7km/h | 19920m | 7.1m/s | -56.1°C | 2.2% | 0hPa | 5.6V | 00:00:00 | 00:00:00 | 00:00:00 | |
| OM5KV | 2026-09-04 18:10:49 | 44.43111 | 20.60646 | 201° | 7km/h | 19910m | 5.6m/s | -56.0°C | 2.1% | 0hPa | 5.6V | 00:00:00 | 00:00:00 | 00:00:00 | |
| OM5KV | 2026-09-04 18:10:46 | 44.43119 | 20.60649 | 209° | 9km/h | 19893m | 6.8m/s | -56.0°C | 2.1% | 0hPa | 5.6V | 00:00:00 | 00:00:00 | 00:00:00 | |
| OM5KV | 2026-09-04 18:10:44 | 44.43120 | 20.60653 | 268° | 7km/h | 19881m | 4.5m/s | -56.0°C | 2.1% | 0hPa | 5.6V | 00:00:00 | 00:00:00 | 00:00:00 | |
| OM5KV | 2026-09-04 18:10:43 | 44.43121 | 20.60655 | 250° | 4km/h | 19876m | 5.4m/s | -56.0°C | 2.1% | 0hPa | 5.6V | 00:00:00 | 00:00:00 | 00:00:00 | |
| OM5KV | 2026-09-04 18:10:41 | 44.43123 | 20.60656 | 163° | 9km/h | 19864m | 5.0m/s | -56.1°C | 2.1% | 0hPa | 5.6V | 00:00:00 | 00:00:00 | 00:00:00 | |
| OM5KV | 2026-09-04 18:10:38 | 44.43130 | 20.60654 | 192° | 7km/h | 19848m | 5.0m/s | -56.1°C | 2.1% | 0hPa | 5.6V | 00:00:00 | 00:00:00 | 00:00:00 | |
| OM5KV | 2026-09-04 18:10:35 | 44.43136 | 20.60658 | 194° | 15km/h | 19831m | 6.4m/s | -56.1°C | 2.1% | 0hPa | 5.6V | 00:00:00 | 00:00:00 | 00:00:00 | |
| OM5KV | 2026-09-04 18:10:32 | 44.43147 | 20.60658 | 160° | 15km/h | 19815m | 4.5m/s | -56.2°C | 2.2% | 0hPa | 5.6V | 00:00:00 | 00:00:00 | 00:00:00 | |
| OM5KV | 2026-09-04 18:10:29 | 44.43162 | 20.60647 | 147° | 26km/h | 19798m | 5.2m/s | -56.3°C | 2.2% | 0hPa | 5.6V | 00:00:00 | 00:00:00 | 00:00:00 | |
| OM5KV | 2026-09-04 18:10:23 | 44.43178 | 20.60621 | 143° | 18km/h | 19763m | 4.5m/s | -56.4°C | 2.2% | 0hPa | 5.6V | 00:00:00 | 00:00:00 | 00:00:00 | |
| OM5KV | 2026-09-04 18:10:20 | 44.43190 | 20.60604 | 119° | 26km/h | 19746m | 5.6m/s | -56.5°C | 2.2% | 0hPa | 5.6V | 00:00:00 | 00:00:00 | 00:00:00 | |
| OM5KV | 2026-09-04 18:10:17 | 44.43201 | 20.60577 | 124° | 33km/h | 19728m | 5.6m/s | -56.6°C | 2.3% | 0hPa | 5.6V | 00:00:00 | 00:00:00 | 00:00:00 | |
| OM5KV | 2026-09-04 18:10:14 | 44.43210 | 20.60550 | 110° | 24km/h | 19712m | 4.1m/s | -56.8°C | 2.3% | 0hPa | 5.6V | 00:00:00 | 00:00:00 | 00:00:00 | |
| OM5KV | 2026-09-04 18:10:11 | 44.43220 | 20.60530 | 131° | 26km/h | 19695m | 4.9m/s | -56.8°C | 2.3% | 0hPa | 5.6V | 00:00:00 | 00:00:00 | 00:00:00 | |
| OM5KV | 2026-09-04 18:10:08 | 44.43230 | 20.60506 | 121° | 27km/h | 19679m | 5.8m/s | -56.9°C | 2.4% | 0hPa | 5.6V | 00:00:00 | 00:00:00 | 00:00:00 | |
| OM5KV | 2026-09-04 18:10:07 | 44.43233 | 20.60498 | 126° | 24km/h | 19672m | 7.0m/s | -56.9°C | 2.4% | 0hPa | 5.6V | 00:00:00 | 00:00:00 | 00:00:00 | |
| OM5KV | 2026-09-04 18:10:04 | 44.43240 | 20.60479 | 97° | 20km/h | 19655m | 5.5m/s | -56.8°C | 2.4% | 0hPa | 5.6V | 00:00:00 | 00:00:00 | 00:00:00 | |
| OM5KV | 2026-09-04 18:10:02 | 44.43240 | 20.60465 | 88° | 16km/h | 19642m | 7.2m/s | -56.8°C | 2.4% | 0hPa | 5.6V | 00:00:00 | 00:00:00 | 00:00:00 | |
| OM5KV | 2026-09-04 18:09:58 | 44.43240 | 20.60442 | 111° | 22km/h | 19619m | 5.0m/s | -56.7°C | 2.4% | 0hPa | 5.6V | 00:00:00 | 00:00:00 | 00:00:00 | |
| OM5KV | 2026-09-04 18:09:57 | 44.43242 | 20.60435 | 119° | 24km/h | 19614m | 5.0m/s | -56.7°C | 2.4% | 0hPa | 5.6V | 00:00:00 | 00:00:00 | 00:00:00 | |
| OM5KV | 2026-09-04 18:09:52 | 44.43260 | 20.60411 | 105° | 15km/h | 19587m | 6.0m/s | -56.6°C | 2.3% | 0hPa | 5.6V | 00:00:00 | 00:00:00 | 00:00:00 | |
| OM5KV | 2026-09-04 18:09:50 | 44.43257 | 20.60400 | 47° | 20km/h | 19575m | 6.4m/s | -56.6°C | 2.3% | 0hPa | 5.6V | 00:00:00 | 00:00:00 | 00:00:00 | |
| OE3JTB-15 | 2026-09-04 18:09:49 | 44.43253 | 20.60396 | 30° | 18km/h | 19569m | 5.4m/s | -55.8°C | 0% | 0hPa | 5.6V | 00:00:00 | 00:00:00 | 00:00:00 | |
| OM5KV | 2026-09-04 18:09:47 | 44.43247 | 20.60392 | 59° | 7km/h | 19561m | 4.1m/s | -56.6°C | 2.3% | 0hPa | 5.6V | 00:00:00 | 00:00:00 | 00:00:00 | |
| OM5KV | 2026-09-04 18:09:44 | 44.43254 | 20.60381 | 150° | 22km/h | 19542m | 6.2m/s | -56.5°C | 2.3% | 0hPa | 5.6V | 00:00:00 | 00:00:00 | 00:00:00 | |
| OM5KV | 2026-09-04 18:09:41 | 44.43267 | 20.60370 | 133° | 18km/h | 19526m | 6.0m/s | -56.5°C | 2.3% | 0hPa | 5.6V | 00:00:00 | 00:00:00 | 00:00:00 | |
| OM5KV | 2026-09-04 18:09:38 | 44.43268 | 20.60356 | 51° | 11km/h | 19510m | 6.2m/s | -56.4°C | 2.2% | 0hPa | 5.6V | 00:00:00 | 00:00:00 | 00:00:00 | |
| OM5KV | 2026-09-04 18:09:31 | 44.43289 | 20.60341 | 157° | 27km/h | 19470m | 5.9m/s | -56.4°C | 2.2% | 0hPa | 5.6V | 00:00:00 | 00:00:00 | 00:00:00 | |
| OM5KV | 2026-09-04 18:09:30 | 44.43296 | 20.60337 | 160° | 24km/h | 19466m | 4.0m/s | -56.5°C | 2.2% | 0hPa | 5.6V | 00:00:00 | 00:00:00 | 00:00:00 | |
| OM5KV | 2026-09-04 18:09:25 | 44.43311 | 20.60336 | 231° | 18km/h | 19436m | 6.2m/s | -56.8°C | 2.3% | 0hPa | 5.6V | 00:00:00 | 00:00:00 | 00:00:00 | |
| OM5KV | 2026-09-04 18:09:24 | 44.43315 | 20.60341 | 224° | 20km/h | 19433m | 2.8m/s | -56.8°C | 2.3% | 0hPa | 5.6V | 00:00:00 | 00:00:00 | 00:00:00 | |
| OE3JTB-15 | 2026-09-04 18:09:20 | 44.43332 | 20.60340 | 150° | 18km/h | 19407m | 7.1m/s | -56.1°C | 0% | 0hPa | 5.6V | 00:00:00 | 00:00:00 | 00:00:00 | |
| OM5KV | 2026-09-04 18:09:17 | 44.43343 | 20.60329 | 139° | 16km/h | 19390m | 6.5m/s | -57.0°C | 2.3% | 0hPa | 5.6V | 00:00:00 | 00:00:00 | 00:00:00 | |
| OM5KV | 2026-09-04 18:09:14 | 44.43351 | 20.60326 | 210° | 11km/h | 19372m | 5.4m/s | -57.0°C | 2.3% | 0hPa | 5.6V | 00:00:00 | 00:00:00 | 00:00:00 | |
| OM5KV | 2026-09-04 18:09:13 | 44.43354 | 20.60328 | 203° | 13km/h | 19367m | 5.1m/s | -57.0°C | 2.3% | 0hPa | 5.6V | 00:00:00 | 00:00:00 | 00:00:00 | |
| OM5KV | 2026-09-04 18:09:12 | 44.43357 | 20.60329 | 183° | 15km/h | 19360m | 6.7m/s | -57.1°C | 2.3% | 0hPa | 5.6V | 00:00:00 | 00:00:00 | 00:00:00 | |
| OM5KV | 2026-09-04 18:09:07 | 44.43381 | 20.60313 | 147° | 15km/h | 19333m | 4.8m/s | -57.3°C | 2.3% | 0hPa | 5.6V | 00:00:00 | 00:00:00 | 00:00:00 | |
| OM5KV | 2026-09-04 18:09:02 | 44.43390 | 20.60295 | 148° | 11km/h | 19305m | 5.7m/s | -57.2°C | 2.3% | 0hPa | 5.6V | 00:00:00 | 00:00:00 | 00:00:00 | |
| OM5KV | 2026-09-04 18:08:59 | 44.43399 | 20.60285 | 131° | 20km/h | 19286m | 5.6m/s | -57.1°C | 2.3% | 0hPa | 5.6V | 00:00:00 | 00:00:00 | 00:00:00 | |
| OM5KV | 2026-09-04 18:08:56 | 44.43407 | 20.60266 | 107° | 24km/h | 19271m | 4.3m/s | -57.0°C | 2.2% | 0hPa | 5.6V | 00:00:00 | 00:00:00 | 00:00:00 | |
| OM5KV | 2026-09-04 18:08:55 | 44.43408 | 20.60258 | 95° | 26km/h | 19264m | 7.2m/s | -57.0°C | 2.2% | 0hPa | 5.6V | 00:00:00 | 00:00:00 | 00:00:00 | |
| LZ4TU-5 | 2026-09-04 18:08:54 | 44.43408 | 20.60249 | 84° | 27km/h | 19259m | 4.9m/s | -57.0°C | 2.2% | 0hPa | 5.6V | 00:00:00 | 00:00:00 | 00:00:00 | |
| OM5KV | 2026-09-04 18:08:53 | 44.43408 | 20.60240 | 87° | 24km/h | 19253m | 5.5m/s | -57.0°C | 2.2% | 0hPa | 5.6V | 00:00:00 | 00:00:00 | 00:00:00 | |
| OE3JTB-15 | 2026-09-04 18:08:50 | 44.43413 | 20.60219 | 126° | 24km/h | 19235m | 6.7m/s | -56.5°C | 0% | 0hPa | 5.6V | 00:00:00 | 00:00:00 | 00:00:00 | |
| OM5KV | 2026-09-04 18:08:49 | 44.43417 | 20.60212 | 122° | 20km/h | 19229m | 5.8m/s | -57.6°C | 2.4% | 0hPa | 5.6V | 00:00:00 | 00:00:00 | 00:00:00 | |
| OM5KV | 2026-09-04 18:08:48 | 44.43419 | 20.60206 | 119° | 20km/h | 19224m | 4.5m/s | -57.9°C | 2.5% | 0hPa | 5.6V | 00:00:00 | 00:00:00 | 00:00:00 | |
| OM5KV | 2026-09-04 18:08:44 | 44.43427 | 20.60166 | 76° | 27km/h | 19196m | 7.7m/s | -58.5°C | 2.6% | 0hPa | 5.6V | 00:00:00 | 00:00:00 | 00:00:00 | |
| OM5KV | 2026-09-04 18:08:42 | 44.43423 | 20.60156 | 59° | 33km/h | 19191m | 5.1m/s | -58.5°C | 2.6% | 0hPa | 5.6V | 00:00:00 | 00:00:00 | 00:00:00 | |
| OM5KV | 2026-09-04 18:08:37 | 44.43409 | 20.60114 | 90° | 24km/h | 19163m | 6.5m/s | -58.5°C | 2.7% | 0hPa | 5.6V | 00:00:00 | 00:00:00 | 00:00:00 | |
| OM5KV | 2026-09-04 18:08:36 | 44.43409 | 20.60105 | 95° | 27km/h | 19157m | 5.6m/s | -58.5°C | 2.8% | 0hPa | 5.6V | 00:00:00 | 00:00:00 | 00:00:00 | |
| OM5KV | 2026-09-04 18:08:31 | 44.43409 | 20.60058 | 63° | 31km/h | 19128m | 6.8m/s | -58.4°C | 2.8% | 0hPa | 5.6V | 00:00:00 | 00:00:00 | 00:00:00 | |
| OM5KV | 2026-09-04 18:08:26 | 44.43387 | 20.60024 | 51° | 15km/h | 19100m | 6.1m/s | -58.2°C | 2.8% | 0hPa | 5.6V | 00:00:00 | 00:00:00 | 00:00:00 | |
| OM5KV | 2026-09-04 18:08:25 | 44.43385 | 20.60019 | 75° | 16km/h | 19094m | 6.0m/s | -58.2°C | 2.8% | 0hPa | 5.6V | 00:00:00 | 00:00:00 | 00:00:00 | |
| OE3JTB-15 | 2026-09-04 18:08:21 | 44.43383 | 20.59991 | 83° | 20km/h | 19073m | 4.4m/s | -57.1°C | 0% | 0hPa | 5.6V | 00:00:00 | 00:00:00 | 00:00:00 | |
| OM5KV | 2026-09-04 18:08:20 | 44.43382 | 20.59984 | 72° | 18km/h | 19067m | 5.4m/s | -58.0°C | 2.8% | 0hPa | 5.6V | 00:00:00 | 00:00:00 | 00:00:00 | |
| OM5KV | 2026-09-04 18:08:19 | 44.43380 | 20.59978 | 60° | 22km/h | 19060m | 7.2m/s | -57.9°C | 2.8% | 0hPa | 5.6V | 00:00:00 | 00:00:00 | 00:00:00 | |
| OM5KV | 2026-09-04 18:08:13 | 44.43356 | 20.59950 | 60° | 20km/h | 19025m | 5.0m/s | -57.7°C | 2.8% | 0hPa | 5.6V | 00:00:00 | 00:00:00 | 00:00:00 | |
| OM5KV | 2026-09-04 18:08:08 | 44.43351 | 20.59923 | 56° | 15km/h | 18996m | 5.9m/s | -57.4°C | 2.7% | 0hPa | 5.6V | 00:00:00 | 00:00:00 | 00:00:00 | |
| OM5KV | 2026-09-04 18:08:07 | 44.43347 | 20.59919 | 29° | 16km/h | 18991m | 5.2m/s | -57.4°C | 2.7% | 0hPa | 5.6V | 00:00:00 | 00:00:00 | 00:00:00 | |
| OM5KV | 2026-09-04 18:08:02 | 44.43335 | 20.59904 | 72° | 18km/h | 18961m | 8.0m/s | -57.2°C | 2.7% | 0hPa | 5.6V | 00:00:00 | 00:00:00 | 00:00:00 | |
| OM5KV | 2026-09-04 18:08:01 | 44.43333 | 20.59897 | 75° | 24km/h | 18956m | 4.7m/s | -57.2°C | 2.7% | 0hPa | 5.6V | 00:00:00 | 00:00:00 | 00:00:00 | |
| OM5KV | 2026-09-04 18:07:55 | 44.43329 | 20.59868 | 61° | 9km/h | 18920m | 6.7m/s | -57.1°C | 2.7% | 0hPa | 5.6V | 00:00:00 | 00:00:00 | 00:00:00 | |
| OM5KV | 2026-09-04 18:07:50 | 44.43331 | 20.59840 | 109° | 18km/h | 18886m | 6.9m/s | -57.6°C | 2.9% | 0hPa | 5.6V | 00:00:00 | 00:00:00 | 00:00:00 | |
| OM5KV | 2026-09-04 18:07:49 | 44.43332 | 20.59835 | 106° | 13km/h | 18881m | 5.4m/s | -57.6°C | 2.9% | 0hPa | 5.6V | 00:00:00 | 00:00:00 | 00:00:00 | |
| OM5KV | 2026-09-04 18:07:44 | 44.43340 | 20.59820 | 146° | 15km/h | 18851m | 7.0m/s | -57.8°C | 2.5% | 0hPa | 5.6V | 00:00:00 | 00:00:00 | 00:00:00 | |
| OM5KV | 2026-09-04 18:07:38 | 44.43344 | 20.59788 | 63° | 13km/h | 18816m | 4.4m/s | -57.7°C | 2.6% | 0hPa | 5.6V | 00:00:00 | 00:00:00 | 00:00:00 | |
| OM5KV | 2026-09-04 18:07:33 | 44.43352 | 20.59775 | 156° | 15km/h | 18788m | 6.6m/s | -57.6°C | 2.6% | 0hPa | 5.6V | 00:00:00 | 00:00:00 | 00:00:00 | |
| OM5KV | 2026-09-04 18:07:31 | 44.43358 | 20.59771 | 156° | 11km/h | 18776m | 7.4m/s | -57.6°C | 2.6% | 0hPa | 5.6V | 00:00:00 | 00:00:00 | 00:00:00 | |
| OM5KV | 2026-09-04 18:07:25 | 44.43367 | 20.59746 | 138° | 13km/h | 18740m | 5.0m/s | -57.5°C | 2.6% | 0hPa | 5.6V | 00:00:00 | 00:00:00 | 00:00:00 | |
| OM5KV | 2026-09-04 18:07:22 | 44.43377 | 20.59744 | 181° | 16km/h | 18723m | 6.2m/s | -57.4°C | 2.6% | 0hPa | 5.6V | 00:00:00 | 00:00:00 | 00:00:00 | |
| OM5KV | 2026-09-04 18:07:19 | 44.43387 | 20.59736 | 134° | 16km/h | 18703m | 7.0m/s | -57.4°C | 2.7% | 0hPa | 5.6V | 00:00:00 | 00:00:00 | 00:00:00 | |
| OM5KV | 2026-09-04 18:07:16 | 44.43394 | 20.59723 | 115° | 16km/h | 18685m | 7.2m/s | -57.4°C | 2.7% | 0hPa | 5.6V | 00:00:00 | 00:00:00 | 00:00:00 | |
| OM5KV | 2026-09-04 18:07:14 | 44.43397 | 20.59714 | 122° | 13km/h | 18674m | 7.0m/s | -57.4°C | 2.7% | 0hPa | 5.6V | 00:00:00 | 00:00:00 | 00:00:00 | |
| OM5KV | 2026-09-04 18:07:11 | 44.43402 | 20.59707 | 134° | 11km/h | 18657m | 6.8m/s | -57.3°C | 2.6% | 0hPa | 5.6V | 00:00:00 | 00:00:00 | 00:00:00 | |
| OM5KV | 2026-09-04 18:07:08 | 44.43409 | 20.59697 | 139° | 15km/h | 18640m | 4.5m/s | -57.1°C | 2.6% | 0hPa | 5.6V | 00:00:00 | 00:00:00 | 00:00:00 | |
| OM5KV | 2026-09-04 18:07:05 | 44.43417 | 20.59680 | 112° | 22km/h | 18622m | 5.2m/s | -57.0°C | 2.6% | 0hPa | 5.6V | 00:00:00 | 00:00:00 | 00:00:00 | |
| OM5KV | 2026-09-04 18:07:02 | 44.43423 | 20.59664 | 124° | 13km/h | 18605m | 6.1m/s | -57.0°C | 2.6% | 0hPa | 5.6V | 00:00:00 | 00:00:00 | 00:00:00 | |
| OM5KV | 2026-09-04 18:06:56 | 44.43434 | 20.59650 | 165° | 15km/h | 18571m | 4.5m/s | -57.1°C | 2.6% | 0hPa | 5.6V | 00:00:00 | 00:00:00 | 00:00:00 | |
| LZ4TU-5 | 2026-09-04 18:06:51 | 44.43448 | 20.59625 | 122° | 18km/h | 18543m | 5.3m/s | -57.3°C | 2.7% | 0hPa | 5.6V | 00:00:00 | 00:00:00 | 00:00:00 | |
| OM5KV | 2026-09-04 18:06:49 | 44.43451 | 20.59616 | 107° | 13km/h | 18532m | 6.5m/s | -57.3°C | 2.7% | 0hPa | 5.6V | 00:00:00 | 00:00:00 | 00:00:00 | |
| OM5KV | 2026-09-04 18:06:48 | 44.43452 | 20.59611 | 99° | 13km/h | 18526m | 5.5m/s | -57.3°C | 2.7% | 0hPa | 5.6V | 00:00:00 | 00:00:00 | 00:00:00 | |
| LZ4TU-5 | 2026-09-04 18:06:47 | 44.43453 | 20.59607 | 111° | 11km/h | 18521m | 6.0m/s | -57.3°C | 2.7% | 0hPa | 5.6V | 00:00:00 | 00:00:00 | 00:00:00 | |
| OM5KV | 2026-09-04 18:06:45 | 44.43456 | 20.59603 | 153° | 9km/h | 18508m | 4.9m/s | -57.4°C | 2.8% | 0hPa | 5.6V | 00:00:00 | 00:00:00 | 00:00:00 | |
| OM5KV | 2026-09-04 18:06:38 | 44.43453 | 20.59569 | 68° | 24km/h | 18468m | 5.6m/s | -57.7°C | 2.9% | 0hPa | 5.6V | 00:00:00 | 00:00:00 | 00:00:00 | |
| LZ4TU-5 | 2026-09-04 18:06:36 | 44.43449 | 20.59556 | 76° | 16km/h | 18456m | 6.2m/s | -57.6°C | 2.9% | 0hPa | 5.6V | 00:00:00 | 00:00:00 | 00:00:00 | |
| OM5KV | 2026-09-04 18:06:35 | 44.43449 | 20.59550 | 90° | 15km/h | 18451m | 4.6m/s | -57.6°C | 2.9% | 0hPa | 5.6V | 00:00:00 | 00:00:00 | 00:00:00 | |
| OM5KV | 2026-09-04 18:06:33 | 44.43450 | 20.59537 | 98° | 24km/h | 18440m | 5.6m/s | -57.5°C | 2.8% | 0hPa | 5.6V | 00:00:00 | 00:00:00 | 00:00:00 | |
| OM5KV | 2026-09-04 18:06:32 | 44.43451 | 20.59528 | 96° | 29km/h | 18436m | 4.8m/s | -57.4°C | 2.9% | 0hPa | 5.6V | 00:00:00 | 00:00:00 | 00:00:00 | |
| OM5KV | 2026-09-04 18:06:29 | 44.43453 | 20.59501 | 98° | 18km/h | 18419m | 5.8m/s | -57.5°C | 2.9% | 0hPa | 5.6V | 00:00:00 | 00:00:00 | 00:00:00 | |
| OE3JTB-15 | 2026-09-04 18:06:27 | 44.43451 | 20.59490 | 60° | 13km/h | 18407m | 5.9m/s | -56.7°C | 0% | 0hPa | 5.6V | 00:00:00 | 00:00:00 | 00:00:00 | |
| OM5KV | 2026-09-04 18:06:23 | 44.43442 | 20.59477 | 62° | 15km/h | 18385m | 6.1m/s | -57.7°C | 3.0% | 0hPa | 5.6V | 00:00:00 | 00:00:00 | 00:00:00 | |
| OM5KV | 2026-09-04 18:06:22 | 44.43441 | 20.59471 | 82° | 20km/h | 18379m | 6.0m/s | -57.8°C | 3.0% | 0hPa | 5.6V | 00:00:00 | 00:00:00 | 00:00:00 | |
| OM5KV | 2026-09-04 18:06:17 | 44.43439 | 20.59440 | 47° | 15km/h | 18352m | 6.5m/s | -57.8°C | 3.1% | 0hPa | 5.6V | 00:00:00 | 00:00:00 | 00:00:00 | |
| OM5KV | 2026-09-04 18:06:16 | 44.43436 | 20.59437 | 44° | 16km/h | 18346m | 6.0m/s | -57.8°C | 3.1% | 0hPa | 5.6V | 00:00:00 | 00:00:00 | 00:00:00 | |
| OM5KV | 2026-09-04 18:06:12 | 44.43429 | 20.59423 | 67° | 9km/h | 18325m | 4.4m/s | -57.6°C | 3.1% | 0hPa | 5.6V | 00:00:00 | 00:00:00 | 00:00:00 | |
| OM5KV | 2026-09-04 18:06:09 | 44.43423 | 20.59414 | 28° | 13km/h | 18308m | 6.0m/s | -57.5°C | 3.1% | 0hPa | 5.6V | 00:00:00 | 00:00:00 | 00:00:00 | |
| OM5KV | 2026-09-04 18:06:05 | 44.43410 | 20.59410 | 19° | 13km/h | 18286m | 3.9m/s | -57.4°C | 3.1% | 0hPa | 5.6V | 00:00:00 | 00:00:00 | 00:00:00 | |
| OM5KV | 2026-09-04 18:06:03 | 44.43406 | 20.59406 | 89° | 7km/h | 18273m | 7.0m/s | -57.4°C | 3.1% | 0hPa | 5.6V | 00:00:00 | 00:00:00 | 00:00:00 | |
| OM5KV | 2026-09-04 18:05:59 | 44.43408 | 20.59391 | 53° | 13km/h | 18252m | 6.0m/s | -57.3°C | 3.1% | 0hPa | 5.6V | 00:00:00 | 00:00:00 | 00:00:00 | |
| OM5KV | 2026-09-04 18:05:57 | 44.43402 | 20.59386 | 25° | 15km/h | 18240m | 6.1m/s | -57.3°C | 3.1% | 0hPa | 5.6V | 00:00:00 | 00:00:00 | 00:00:00 | |
| OM5KV | 2026-09-04 18:05:55 | 44.43397 | 20.59382 | 35° | 11km/h | 18229m | 5.6m/s | -57.3°C | 3.1% | 0hPa | 5.6V | 00:00:00 | 00:00:00 | 00:00:00 | |
| OM5KV | 2026-09-04 18:05:53 | 44.43394 | 20.59378 | 110° | 5km/h | 18220m | 4.1m/s | -57.2°C | 3.1% | 0hPa | 5.6V | 00:00:00 | 00:00:00 | 00:00:00 | |
| OM5KV | 2026-09-04 18:05:52 | 44.43396 | 20.59376 | 146° | 11km/h | 18214m | 6.8m/s | -57.2°C | 3.1% | 0hPa | 5.6V | 00:00:00 | 00:00:00 | 00:00:00 | |
| LZ4TU-5 | 2026-09-04 18:05:50 | 44.43403 | 20.59369 | 149° | 22km/h | 18202m | 4.9m/s | -57.3°C | 3.1% | 0hPa | 5.6V | 00:00:00 | 00:00:00 | 00:00:00 | |
| OM5KV | 2026-09-04 18:05:49 | 44.43407 | 20.59365 | 134° | 18km/h | 18196m | 6.1m/s | -57.3°C | 3.1% | 0hPa | 5.6V | 00:00:00 | 00:00:00 | 00:00:00 | |
| OM5KV | 2026-09-04 18:05:46 | 44.43407 | 20.59351 | 61° | 16km/h | 18181m | 5.8m/s | -57.3°C | 3.1% | 0hPa | 5.6V | 00:00:00 | 00:00:00 | 00:00:00 | |
| OM5KV | 2026-09-04 18:05:34 | 44.43427 | 20.59305 | 107° | 7km/h | 18114m | 6.4m/s | -57.5°C | 3.2% | 0hPa | 5.6V | 00:00:00 | 00:00:00 | 00:00:00 | |
| OE3JTB-15 | 2026-09-04 18:05:28 | 44.43427 | 20.59302 | 127° | 13km/h | 18081m | 6.1m/s | -56.5°C | 0% | 0hPa | 5.6V | 00:00:00 | 00:00:00 | 00:00:00 | |
| OM5KV | 2026-09-04 18:05:22 | 44.43432 | 20.59299 | 262° | 5km/h | 18048m | 5.7m/s | -57.2°C | 3.0% | 0hPa | 5.6V | 00:00:00 | 00:00:00 | 00:00:00 | |
| OM5KV | 2026-09-04 18:05:17 | 44.43435 | 20.59300 | 110° | 11km/h | 18022m | 5.9m/s | -57.2°C | 3.0% | 0hPa | 5.6V | 00:00:00 | 00:00:00 | 00:00:00 | |
| LZ4TU-5 | 2026-09-04 18:05:13 | 44.43439 | 20.59288 | 128° | 5km/h | 18000m | 5.0m/s | -57.2°C | 3.0% | 0hPa | 5.6V | 00:00:00 | 00:00:00 | 00:00:00 | |
| OM5KV | 2026-09-04 18:05:12 | 44.43440 | 20.59288 | 209° | 4km/h | 17994m | 6.5m/s | -57.3°C | 3.0% | 0hPa | 5.6V | 00:00:00 | 00:00:00 | 00:00:00 | |
| OM5KV | 2026-09-04 18:05:11 | 44.43442 | 20.59290 | 230° | 9km/h | 17989m | 4.8m/s | -57.3°C | 3.0% | 0hPa | 5.6V | 00:00:00 | 00:00:00 | 00:00:00 | |
| LZ4TU-5 | 2026-09-04 18:05:09 | 44.43445 | 20.59295 | 197° | 9km/h | 17979m | 5.6m/s | -57.4°C | 3.0% | 0hPa | 5.6V | 00:00:00 | 00:00:00 | 00:00:00 | |
| OM5KV | 2026-09-04 18:05:06 | 44.43454 | 20.59290 | 142° | 15km/h | 17963m | 4.8m/s | -57.6°C | 3.0% | 0hPa | 5.6V | 00:00:00 | 00:00:00 | 00:00:00 | |
| OM5KV | 2026-09-04 18:05:05 | 44.43457 | 20.59286 | 135° | 15km/h | 17958m | 4.5m/s | -57.6°C | 3.0% | 0hPa | 5.6V | 00:00:00 | 00:00:00 | 00:00:00 | |
| OM5KV | 2026-09-04 18:05:03 | 44.43462 | 20.59276 | 115° | 20km/h | 17947m | 6.5m/s | -57.6°C | 2.9% | 0hPa | 5.6V | 00:00:00 | 00:00:00 | 00:00:00 | |
| OM5KV | 2026-09-04 18:05:00 | 44.43468 | 20.59258 | 140° | 13km/h | 17930m | 5.9m/s | -57.7°C | 2.9% | 0hPa | 5.6V | 00:00:00 | 00:00:00 | 00:00:00 | |
| OM5KV | 2026-09-04 18:04:55 | 44.43476 | 20.59241 | 91° | 18km/h | 17905m | 4.7m/s | -58.6°C | 3.1% | 0hPa | 5.6V | 00:00:00 | 00:00:00 | 00:00:00 | |
| OM5KV | 2026-09-04 18:04:53 | 44.43477 | 20.59228 | 103° | 16km/h | 17895m | 4.9m/s | -58.8°C | 3.1% | 0hPa | 5.6V | 00:00:00 | 00:00:00 | 00:00:00 | |
| OM5KV | 2026-09-04 18:04:48 | 44.43482 | 20.59200 | 111° | 15km/h | 17870m | 4.4m/s | -58.8°C | 3.1% | 0hPa | 5.6V | 00:00:00 | 00:00:00 | 00:00:00 | |
| OM5KV | 2026-09-04 18:04:47 | 44.43484 | 20.59195 | 103° | 16km/h | 17865m | 4.4m/s | -58.8°C | 3.1% | 0hPa | 5.6V | 00:00:00 | 00:00:00 | 00:00:00 | |
| OM5KV | 2026-09-04 18:04:42 | 44.43482 | 20.59165 | 105° | 13km/h | 17839m | 4.7m/s | -58.9°C | 3.1% | 0hPa | 5.6V | 00:00:00 | 00:00:00 | 00:00:00 | |
| OM5KV | 2026-09-04 18:04:41 | 44.43482 | 20.59160 | 108° | 15km/h | 17834m | 5.6m/s | -58.9°C | 3.1% | 0hPa | 5.6V | 00:00:00 | 00:00:00 | 00:00:00 | |
| OE3JTB-15 | 2026-09-04 18:04:34 | 44.43484 | 20.59126 | 51° | 13km/h | 17795m | 4.5m/s | -58.5°C | 0% | 0hPa | 5.6V | 00:00:00 | 00:00:00 | 00:00:00 | |
| OM5KV | 2026-09-04 18:04:30 | 44.43477 | 20.59110 | 101° | 11km/h | 17774m | 5.1m/s | -59.5°C | 3.3% | 0hPa | 0V | 00:00:00 | 00:00:00 | 00:00:00 | |
| OM5KV | 2026-09-04 18:04:29 | 44.43478 | 20.59106 | 107° | 13km/h | 17769m | 5.9m/s | -59.5°C | 3.3% | 0hPa | 0V | 00:00:00 | 00:00:00 | 00:00:00 | |
| OM5KV | 2026-09-04 18:04:25 | 44.43485 | 20.59091 | 138° | 11km/h | 17747m | 5.4m/s | -59.5°C | 3.3% | 0hPa | 0V | 00:00:00 | 00:00:00 | 00:00:00 | |
| OM5KV | 2026-09-04 18:04:23 | 44.43487 | 20.59084 | 85° | 11km/h | 17735m | 5.2m/s | -59.5°C | 3.3% | 0hPa | 0V | 00:00:00 | 00:00:00 | 00:00:00 | |
| LZ4TU-5 | 2026-09-04 18:04:20 | 44.43487 | 20.59076 | 163° | 9km/h | 17720m | 6.0m/s | -59.8°C | 3.4% | 0hPa | 0V | 00:00:00 | 00:00:00 | 00:00:00 | |
| OM5KV | 2026-09-04 18:04:18 | 44.43494 | 20.59076 | 184° | 16km/h | 17709m | 5.5m/s | -59.8°C | 3.4% | 0hPa | 0V | 00:00:00 | 00:00:00 | 00:00:00 | |
| LZ4TU-5 | 2026-09-04 18:04:15 | 44.43504 | 20.59070 | 133° | 16km/h | 17691m | 6.0m/s | -59.8°C | 3.4% | 0hPa | 0V | 00:00:00 | 00:00:00 | 00:00:00 | |
| OM5KV | 2026-09-04 18:04:13 | 44.43508 | 20.59058 | 96° | 18km/h | 17680m | 6.3m/s | -59.7°C | 3.4% | 0hPa | 0V | 00:00:00 | 00:00:00 | 00:00:00 | |
| OM5KV | 2026-09-04 18:04:12 | 44.43507 | 20.59052 | 76° | 15km/h | 17675m | 5.0m/s | -59.7°C | 3.4% | 0hPa | 0V | 00:00:00 | 00:00:00 | 00:00:00 | |
| LZ4TU-5 | 2026-09-04 18:04:10 | 44.43506 | 20.59046 | 0° | 0km/h | 17663m | 6.8m/s | -59.6°C | 3.4% | 0hPa | 0V | 00:00:00 | 00:00:00 | 00:00:00 | |
| OM5KV | 2026-09-04 18:04:07 | 44.43515 | 20.59054 | 217° | 18km/h | 17647m | 5.8m/s | -59.6°C | 3.4% | 0hPa | 0V | 00:00:00 | 00:00:00 | 00:00:00 | |
| OM5KV | 2026-09-04 18:04:06 | 44.43518 | 20.59057 | 211° | 13km/h | 17642m | 4.6m/s | -59.6°C | 3.4% | 0hPa | 0V | 00:00:00 | 00:00:00 | 00:00:00 | |
| OM5KV | 2026-09-04 18:04:00 | 44.43523 | 20.59034 | 91° | 11km/h | 17607m | 5.0m/s | -59.9°C | 3.6% | 0hPa | 0V | 00:00:00 | 00:00:00 | 00:00:00 | |
| OM5KV | 2026-09-04 18:03:55 | 44.43540 | 20.59036 | 205° | 20km/h | 17578m | 5.8m/s | -60.1°C | 3.7% | 0hPa | 0V | 00:00:00 | 00:00:00 | 00:00:00 | |
| OM5KV | 2026-09-04 18:03:54 | 44.43545 | 20.59039 | 191° | 22km/h | 17571m | 6.4m/s | -60.1°C | 3.7% | 0hPa | 0V | 00:00:00 | 00:00:00 | 00:00:00 | |
| OM5KV | 2026-09-04 18:03:49 | 44.43566 | 20.59027 | 144° | 20km/h | 17544m | 5.9m/s | -59.9°C | 3.7% | 0hPa | 0V | 00:00:00 | 00:00:00 | 00:00:00 | |
| OM5KV | 2026-09-04 18:03:48 | 44.43571 | 20.59023 | 156° | 24km/h | 17538m | 5.8m/s | -59.9°C | 3.7% | 0hPa | 0V | 00:00:00 | 00:00:00 | 00:00:00 | |
| OM5KV | 2026-09-04 18:03:46 | 44.43582 | 20.59019 | 172° | 24km/h | 17525m | 6.1m/s | -59.8°C | 3.7% | 0hPa | 0V | 00:00:00 | 00:00:00 | 00:00:00 | |
| OM5KV | 2026-09-04 18:03:43 | 44.43600 | 20.59015 | 166° | 27km/h | 17509m | 6.3m/s | -59.7°C | 3.7% | 0hPa | 0V | 00:00:00 | 00:00:00 | 00:00:00 | |
| OM5KV | 2026-09-04 18:03:41 | 44.43614 | 20.59008 | 156° | 26km/h | 17497m | 5.9m/s | -59.7°C | 3.7% | 0hPa | 0V | 00:00:00 | 00:00:00 | 00:00:00 | |
| LZ4TU-5 | 2026-09-04 18:03:36 | 44.43636 | 20.58987 | 150° | 22km/h | 17468m | 6.3m/s | -59.7°C | 3.7% | 0hPa | 0V | 00:00:00 | 00:00:00 | 00:00:00 | |
| OM5KV | 2026-09-04 18:03:35 | 44.43641 | 20.58984 | 165° | 22km/h | 17463m | 5.1m/s | -59.7°C | 3.8% | 0hPa | 0V | 00:00:00 | 00:00:00 | 00:00:00 | |
| LZ4TU-5 | 2026-09-04 18:03:31 | 44.43674 | 20.58973 | 161° | 40km/h | 17440m | 5.6m/s | -59.6°C | 3.8% | 0hPa | 0V | 00:00:00 | 00:00:00 | 00:00:00 | |
| OM5KV | 2026-09-04 18:03:28 | 44.43699 | 20.58960 | 154° | 31km/h | 17424m | 5.3m/s | -59.5°C | 3.8% | 0hPa | 0V | 00:00:00 | 00:00:00 | 00:00:00 | |
| OM5KV | 2026-09-04 18:03:25 | 44.43718 | 20.58937 | 135° | 35km/h | 17405m | 5.3m/s | -59.6°C | 3.8% | 0hPa | 0V | 00:00:00 | 00:00:00 | 00:00:00 | |
| OM5KV | 2026-09-04 18:03:22 | 44.43737 | 20.58919 | 160° | 31km/h | 17389m | 5.1m/s | -59.6°C | 3.9% | 0hPa | 0V | 00:00:00 | 00:00:00 | 00:00:00 | |
| OM5KV | 2026-09-04 18:03:19 | 44.43762 | 20.58902 | 148° | 42km/h | 17371m | 4.8m/s | -59.7°C | 3.9% | 0hPa | 0V | 00:00:00 | 00:00:00 | 00:00:00 | |
| OM5KV | 2026-09-04 18:03:09 | 44.43832 | 20.58824 | 136° | 29km/h | 17318m | 5.1m/s | -59.5°C | 4.0% | 0hPa | 0V | 00:00:00 | 00:00:00 | 00:00:00 | |
| OM5KV | 2026-09-04 18:03:02 | 44.43883 | 20.58770 | 134° | 31km/h | 17277m | 6.5m/s | -59.3°C | 4.0% | 0hPa | 0V | 00:00:00 | 00:00:00 | 00:00:00 | |
| OM5KV | 2026-09-04 18:03:01 | 44.43888 | 20.58763 | 128° | 22km/h | 17272m | 5.0m/s | -59.3°C | 4.1% | 0hPa | 0V | 00:00:00 | 00:00:00 | 00:00:00 | |
| OM5KV | 2026-09-04 18:02:55 | 44.43912 | 20.58726 | 149° | 37km/h | 17241m | 4.4m/s | -59.1°C | 4.0% | 0hPa | 0V | 00:00:00 | 00:00:00 | 00:00:00 | |
| LZ4TU-5 | 2026-09-04 18:02:45 | 44.43957 | 20.58653 | 148° | 29km/h | 17184m | 5.4m/s | -58.9°C | 4.1% | 0hPa | 0V | 00:00:00 | 00:00:00 | 00:00:00 | |
| LZ4TU-5 | 2026-09-04 18:02:40 | 44.43986 | 20.58612 | 116° | 27km/h | 17156m | 7.1m/s | -59.0°C | 4.1% | 0hPa | 0V | 00:00:00 | 00:00:00 | 00:00:00 | |
| OM5KV | 2026-09-04 18:02:17 | 44.44061 | 20.58425 | 114° | 24km/h | 17027m | 5.6m/s | -59.3°C | 4.4% | 0hPa | 0V | 00:00:00 | 00:00:00 | 00:00:00 | |
| LZ4TU-5 | 2026-09-04 18:01:26 | 44.44178 | 20.57956 | 118° | 22km/h | 16755m | 5.1m/s | -58.3°C | 4.9% | 0hPa | 0V | 00:00:00 | 00:00:00 | 00:00:00 | |
| LZ4TU-5 | 2026-09-04 18:01:21 | 44.44188 | 20.57929 | 71° | 15km/h | 16729m | 4.9m/s | -58.6°C | 5.1% | 0hPa | 0V | 00:00:00 | 00:00:00 | 00:00:00 | |
| LZ4TU-5 | 2026-09-04 18:00:07 | 44.44386 | 20.57279 | 126° | 44km/h | 16338m | 5.5m/s | -58.7°C | 6.0% | 0hPa | 0V | 00:00:00 | 00:00:00 | 00:00:00 | |
| LZ4TU-5 | 2026-09-04 18:00:03 | 44.44415 | 20.57239 | 150° | 42km/h | 16317m | 4.7m/s | -58.6°C | 6.0% | 0hPa | 0V | 00:00:00 | 00:00:00 | 00:00:00 | |
| LZ4TU-5 | 2026-09-04 17:58:32 | 44.45008 | 20.56568 | 179° | 29km/h | 15844m | 4.5m/s | -58.9°C | 8.1% | 0hPa | 0V | 00:00:00 | 00:00:00 | 00:00:00 | |
| LZ4TU-5 | 2026-09-04 17:58:28 | 44.45045 | 20.56552 | 151° | 38km/h | 15822m | 5.5m/s | -58.8°C | 8.2% | 0hPa | 0V | 00:00:00 | 00:00:00 | 00:00:00 | |
| LZ4TU-5 | 2026-09-04 17:57:13 | 44.45584 | 20.55819 | 117° | 46km/h | 15399m | 5.6m/s | -59.0°C | 12.1% | 0hPa | 0V | 00:00:00 | 00:00:00 | 00:00:00 | |
| LZ4TU-5 | 2026-09-04 17:57:09 | 44.45611 | 20.55763 | 122° | 46km/h | 15377m | 4.2m/s | -58.9°C | 12.4% | 0hPa | 0V | 00:00:00 | 00:00:00 | 00:00:00 | |
| LZ4TU-5 | 2026-09-04 17:55:54 | 44.46153 | 20.55062 | 144° | 38km/h | 15008m | 4.8m/s | -59.6°C | 18.4% | 0hPa | 0V | 00:00:00 | 00:00:00 | 00:00:00 | |
| LZ4TU-5 | 2026-09-04 17:55:49 | 44.46190 | 20.55039 | 156° | 27km/h | 14982m | 6.1m/s | -59.7°C | 18.9% | 0hPa | 0V | 00:00:00 | 00:00:00 | 00:00:00 | |
| LZ4TU-5 | 2026-09-04 17:54:35 | 44.46807 | 20.54591 | 163° | 27km/h | 14607m | 4.0m/s | -61.2°C | 28.4% | 0hPa | 0V | 00:00:00 | 00:00:00 | 00:00:00 | |
| LZ4TU-5 | 2026-09-04 17:54:30 | 44.46844 | 20.54584 | 172° | 37km/h | 14579m | 6.0m/s | -61.3°C | 29.5% | 0hPa | 0V | 00:00:00 | 00:00:00 | 00:00:00 | |
| LZ4TU-5 | 2026-09-04 17:53:16 | 44.47718 | 20.54224 | 174° | 69km/h | 14201m | 4.6m/s | -63.9°C | 41.1% | 0hPa | 0V | 00:00:00 | 00:00:00 | 00:00:00 | |
| LZ4TU-5 | 2026-09-04 17:53:11 | 44.47796 | 20.54208 | 169° | 58km/h | 14174m | 6.4m/s | -64.5°C | 42.1% | 0hPa | 0V | 00:00:00 | 00:00:00 | 00:00:00 | |
| LZ4TU-5 | 2026-09-04 17:51:55 | 44.49089 | 20.53508 | 158° | 66km/h | 13773m | 6.5m/s | -65.2°C | 48.7% | 0hPa | 0V | 00:00:00 | 00:00:00 | 00:00:00 | |
| LZ4TU-5 | 2026-09-04 17:51:50 | 44.49161 | 20.53475 | 156° | 68km/h | 13746m | 4.7m/s | -65.1°C | 48.4% | 0hPa | 0V | 00:00:00 | 00:00:00 | 00:00:00 | |
| LZ4TU-5 | 2026-09-04 17:50:35 | 44.50423 | 20.53102 | 179° | 66km/h | 13330m | 5.5m/s | -65.4°C | 45.7% | 0hPa | 0V | 00:00:00 | 00:00:00 | 00:00:00 | |
| LZ4TU-5 | 2026-09-04 17:49:20 | 44.51987 | 20.53042 | 178° | 88km/h | 12815m | 5.8m/s | -62.0°C | 43.6% | 0hPa | 0V | 00:00:00 | 00:00:00 | 00:00:00 | |
| LZ4TU-5 | 2026-09-04 17:48:01 | 44.53775 | 20.52432 | 166° | 106km/h | 12309m | 5.4m/s | -57.9°C | 39.1% | 0hPa | 0V | 00:00:00 | 00:00:00 | 00:00:00 | |
| LZ4TU-5 | 2026-09-04 17:47:57 | 44.53869 | 20.52398 | 168° | 88km/h | 12280m | 7.8m/s | -57.7°C | 39.3% | 0hPa | 0V | 00:00:00 | 00:00:00 | 00:00:00 | |
| LZ4TU-5 | 2026-09-04 17:46:41 | 44.55368 | 20.51954 | 167° | 69km/h | 11812m | 7.3m/s | -54.0°C | 0% | 0hPa | 0V | 00:00:00 | 00:00:00 | 00:00:00 | |
| LZ4TU-5 | 2026-09-04 17:46:36 | 44.55467 | 20.51913 | 171° | 77km/h | 11783m | 5.1m/s | -53.8°C | 41.8% | 0hPa | 0V | 00:00:00 | 00:00:00 | 00:00:00 | |
| LZ4TU-5 | 2026-09-04 17:45:22 | 44.56703 | 20.51473 | 159° | 71km/h | 11360m | 6.7m/s | -50.3°C | 47.0% | 0hPa | 0V | 00:00:00 | 00:00:00 | 00:00:00 | |
| LZ4TU-5 | 2026-09-04 17:45:18 | 44.56770 | 20.51446 | 166° | 68km/h | 11340m | 3.8m/s | -50.1°C | 48.3% | 0hPa | 0V | 00:00:00 | 00:00:00 | 00:00:00 | |
| LZ4TU-5 | 2026-09-04 17:44:03 | 44.57839 | 20.50953 | 154° | 53km/h | 10927m | 5.0m/s | -46.6°C | 54.6% | 0hPa | 0V | 00:00:00 | 00:00:00 | 00:00:00 | |
| LZ4TU-5 | 2026-09-04 17:43:58 | 44.57912 | 20.50912 | 160° | 64km/h | 10898m | 5.9m/s | -46.3°C | 55.4% | 0hPa | 0V | 00:00:00 | 00:00:00 | 00:00:00 | |
| LZ4TU-5 | 2026-09-04 17:42:43 | 44.58900 | 20.50318 | 140° | 53km/h | 10442m | 6.2m/s | -42.2°C | 47.0% | 0hPa | 0V | 00:00:00 | 00:00:00 | 00:00:00 | |
| LZ4TU-5 | 2026-09-04 17:42:39 | 44.58953 | 20.50279 | 164° | 60km/h | 10419m | 7.2m/s | -42.0°C | 47.0% | 0hPa | 0V | 00:00:00 | 00:00:00 | 00:00:00 | |
| LZ4TU-5 | 2026-09-04 17:41:24 | 44.59920 | 20.49619 | 139° | 60km/h | 9985m | 6.6m/s | -38.2°C | 43.8% | 0hPa | 0V | 00:00:00 | 00:00:00 | 00:00:00 | |
| LZ4TU-5 | 2026-09-04 17:41:20 | 44.59965 | 20.49573 | 156° | 60km/h | 9960m | 7.9m/s | -37.9°C | 42.7% | 0hPa | 0V | 00:00:00 | 00:00:00 | 00:00:00 | |
| LZ4TU-5 | 2026-09-04 17:40:05 | 44.60890 | 20.48991 | 174° | 71km/h | 9511m | 7.6m/s | -34.4°C | 47.3% | 0hPa | 0V | 00:00:00 | 00:00:00 | 00:00:00 | |
| LZ4TU-5 | 2026-09-04 17:40:00 | 44.60949 | 20.48960 | 129° | 47km/h | 9478m | 6.2m/s | -34.1°C | 47.5% | 0hPa | 0V | 00:00:00 | 00:00:00 | 00:00:00 | |
| LZ4TU-5 | 2026-09-04 17:38:46 | 44.61858 | 20.48333 | 166° | 51km/h | 9021m | 5.5m/s | -30.3°C | 40.2% | 0hPa | 0V | 00:00:00 | 00:00:00 | 00:00:00 | |
| LZ4TU-5 | 2026-09-04 17:38:41 | 44.61931 | 20.48296 | 155° | 51km/h | 8990m | 7.7m/s | -30.0°C | 39.8% | 0hPa | 0V | 00:00:00 | 00:00:00 | 00:00:00 | |
| LZ4TU-5 | 2026-09-04 17:36:46 | 44.63388 | 20.47348 | 156° | 69km/h | 8293m | 5.0m/s | -24.7°C | 40.6% | 0hPa | 0V | 00:00:00 | 00:00:00 | 00:00:00 | |
| LZ4TU-5 | 2026-09-04 17:36:41 | 44.63445 | 20.47333 | 184° | 33km/h | 8266m | 3.4m/s | -24.5°C | 41.5% | 0hPa | 0V | 00:00:00 | 00:00:00 | 00:00:00 | |
| LZ4TU-5 | 2026-09-04 17:35:34 | 44.64338 | 20.46931 | 179° | 53km/h | 7858m | 4.0m/s | -21.6°C | 43.7% | 0hPa | 0V | 00:00:00 | 00:00:00 | 00:00:00 | |
| LZ4TU-5 | 2026-09-04 17:35:30 | 44.64418 | 20.46896 | 161° | 60km/h | 7825m | 5.8m/s | -21.4°C | 43.3% | 0hPa | 0V | 00:00:00 | 00:00:00 | 00:00:00 | |
| LZ4TU-5 | 2026-09-04 17:34:21 | 44.65327 | 20.46614 | 176° | 55km/h | 7414m | 6.4m/s | -18.4°C | 49.1% | 0hPa | 0V | 00:00:00 | 00:00:00 | 00:00:00 | |
| LZ4TU-5 | 2026-09-04 17:34:16 | 44.65385 | 20.46619 | 188° | 51km/h | 7382m | 7.3m/s | -18.2°C | 48.5% | 0hPa | 0V | 00:00:00 | 00:00:00 | 00:00:00 |